<?xml version='1.0' encoding='UTF-8'?><gpx version="1.1" creator="JPX - https://github.com/jenetics/jpx" xmlns="http://www.topografix.com/GPX/1/1"><trk><trkseg><trkpt lat="48.573386670726926" lon="-4.415631987169556"><ele>62.0</ele><time>2026-04-26T08:46:07.019Z</time></trkpt><trkpt lat="48.57342051585574" lon="-4.415512977833991"><ele>62.0</ele><time>2026-04-26T08:46:09.999Z</time></trkpt><trkpt lat="48.57342384483882" lon="-4.415363313319915"><ele>62.0</ele><time>2026-04-26T08:46:12.999Z</time></trkpt><trkpt lat="48.57340538520494" lon="-4.415166382278472"><ele>62.0</ele><time>2026-04-26T08:46:13.999Z</time></trkpt><trkpt lat="48.57340071689168" lon="-4.41499973093388"><ele>62.0</ele><time>2026-04-26T08:46:15.999Z</time></trkpt><trkpt lat="48.57339748986955" lon="-4.414879897322645"><ele>62.5</ele><time>2026-04-26T08:46:17.999Z</time></trkpt><trkpt lat="48.57341490198074" lon="-4.41475807468445"><ele>63.0</ele><time>2026-04-26T08:46:21Z</time></trkpt><trkpt lat="48.57583641361011" lon="-4.4143454803946165"><ele>63.2</ele><time>2026-04-26T08:47:48Z</time></trkpt><trkpt lat="48.57592743588579" lon="-4.4143436244537035"><ele>63.4</ele><time>2026-04-26T08:47:49Z</time></trkpt><trkpt lat="48.57602368075741" lon="-4.4143440615788245"><ele>63.60000000000001</ele><time>2026-04-26T08:47:49.999Z</time></trkpt><trkpt lat="48.57612179251073" lon="-4.414356129758431"><ele>63.800000000000004</ele><time>2026-04-26T08:47:50.999Z</time></trkpt><trkpt lat="48.576221826420166" lon="-4.4143559216462895"><ele>64.0</ele><time>2026-04-26T08:47:51.999Z</time></trkpt><trkpt lat="48.57632310272004" lon="-4.414350954368023"><ele>64.60000000000001</ele><time>2026-04-26T08:47:52.999Z</time></trkpt><trkpt lat="48.57641012793511" lon="-4.414368087823597"><ele>65.2</ele><time>2026-04-26T08:47:54.001Z</time></trkpt><trkpt lat="48.576496836671" lon="-4.414380480205865"><ele>65.80000000000001</ele><time>2026-04-26T08:47:55.001Z</time></trkpt><trkpt lat="48.57658820149523" lon="-4.414387926452126"><ele>66.4</ele><time>2026-04-26T08:47:56.001Z</time></trkpt><trkpt lat="48.57668638213096" lon="-4.414389884052383"><ele>67.0</ele><time>2026-04-26T08:47:57.001Z</time></trkpt><trkpt lat="48.57678577059432" lon="-4.4143969830504375"><ele>67.0</ele><time>2026-04-26T08:47:58.001Z</time></trkpt><trkpt lat="48.57688510577702" lon="-4.41439593470139"><ele>67.0</ele><time>2026-04-26T08:47:59.001Z</time></trkpt><trkpt lat="48.57698396550481" lon="-4.414406684190491"><ele>67.0</ele><time>2026-04-26T08:48:00.001Z</time></trkpt><trkpt lat="48.57708127393352" lon="-4.414405053531211"><ele>67.0</ele><time>2026-04-26T08:48:01.001Z</time></trkpt><trkpt lat="48.5771771507443" lon="-4.4144030719413525"><ele>67.0</ele><time>2026-04-26T08:48:02.001Z</time></trkpt><trkpt lat="48.57727258963936" lon="-4.414388914431489"><ele>67.16666666666666</ele><time>2026-04-26T08:48:03.001Z</time></trkpt><trkpt lat="48.57736602965743" lon="-4.414373865029088"><ele>67.33333333333333</ele><time>2026-04-26T08:48:04.001Z</time></trkpt><trkpt lat="48.57746244040095" lon="-4.4143496096179025"><ele>67.5</ele><time>2026-04-26T08:48:05.001Z</time></trkpt><trkpt lat="48.57754706614193" lon="-4.414325815663261"><ele>67.66666666666667</ele><time>2026-04-26T08:48:06.001Z</time></trkpt><trkpt lat="48.577610295725904" lon="-4.414303345143388"><ele>67.83333333333334</ele><time>2026-04-26T08:48:07.001Z</time></trkpt><trkpt lat="48.577688513277444" lon="-4.414252032350067"><ele>68.0</ele><time>2026-04-26T08:48:09.001Z</time></trkpt><trkpt lat="48.577746793437534" lon="-4.414208862105155"><ele>68.0</ele><time>2026-04-26T08:48:11.001Z</time></trkpt><trkpt lat="48.577782489809636" lon="-4.414129577831624"><ele>68.0</ele><time>2026-04-26T08:48:13.001Z</time></trkpt><trkpt lat="48.57779682978411" lon="-4.413968980141396"><ele>68.0</ele><time>2026-04-26T08:48:16.001Z</time></trkpt><trkpt lat="48.577819370397286" lon="-4.413866483233414"><ele>68.0</ele><time>2026-04-26T08:48:18.001Z</time></trkpt><trkpt lat="48.577860693412674" lon="-4.413722728929214"><ele>68.0</ele><time>2026-04-26T08:48:21Z</time></trkpt><trkpt lat="48.57789105558843" lon="-4.413580126946997"><ele>68.0</ele><time>2026-04-26T08:48:23Z</time></trkpt><trkpt lat="48.57824330011487" lon="-4.412148777457623"><ele>68.16666666666667</ele><time>2026-04-26T08:48:50Z</time></trkpt><trkpt lat="48.57827644018628" lon="-4.4120339489116125"><ele>68.33333333333334</ele><time>2026-04-26T08:48:51Z</time></trkpt><trkpt lat="48.57830493436584" lon="-4.411919958805846"><ele>68.5</ele><time>2026-04-26T08:48:52Z</time></trkpt><trkpt lat="48.57833511151108" lon="-4.41180578522885"><ele>68.66666666666667</ele><time>2026-04-26T08:48:53Z</time></trkpt><trkpt lat="48.57837268009841" lon="-4.411677981850807"><ele>68.83333333333333</ele><time>2026-04-26T08:48:54Z</time></trkpt><trkpt lat="48.578401259436895" lon="-4.4115360202475635"><ele>69.0</ele><time>2026-04-26T08:48:55Z</time></trkpt><trkpt lat="48.57842924563825" lon="-4.411394341380478"><ele>69.2</ele><time>2026-04-26T08:48:56Z</time></trkpt><trkpt lat="48.57846539602292" lon="-4.411264261544218"><ele>69.4</ele><time>2026-04-26T08:48:57Z</time></trkpt><trkpt lat="48.5784983463525" lon="-4.411135141434618"><ele>69.6</ele><time>2026-04-26T08:48:58Z</time></trkpt><trkpt lat="48.57853386436145" lon="-4.4110116227351135"><ele>69.8</ele><time>2026-04-26T08:48:59Z</time></trkpt><trkpt lat="48.57857294786171" lon="-4.410879596205902"><ele>70.0</ele><time>2026-04-26T08:49:00Z</time></trkpt><trkpt lat="48.578612014105055" lon="-4.410742331267397"><ele>70.0</ele><time>2026-04-26T08:49:01Z</time></trkpt><trkpt lat="48.578644329034724" lon="-4.410615640994282"><ele>70.0</ele><time>2026-04-26T08:49:02Z</time></trkpt><trkpt lat="48.5786777040985" lon="-4.410488221431433"><ele>70.0</ele><time>2026-04-26T08:49:03Z</time></trkpt><trkpt lat="48.57870986528695" lon="-4.410364000087282"><ele>70.0</ele><time>2026-04-26T08:49:04Z</time></trkpt><trkpt lat="48.578743863469406" lon="-4.410235871469853"><ele>70.0</ele><time>2026-04-26T08:49:05Z</time></trkpt><trkpt lat="48.57876920233472" lon="-4.4101175731486935"><ele>70.0</ele><time>2026-04-26T08:49:06Z</time></trkpt><trkpt lat="48.578768283247236" lon="-4.409975844996067"><ele>70.4</ele><time>2026-04-26T08:49:07Z</time></trkpt><trkpt lat="48.57880170078035" lon="-4.409849216449553"><ele>70.8</ele><time>2026-04-26T08:49:08Z</time></trkpt><trkpt lat="48.57884165541408" lon="-4.409731843515617"><ele>71.2</ele><time>2026-04-26T08:49:09Z</time></trkpt><trkpt lat="48.57887708442682" lon="-4.409588331408104"><ele>71.6</ele><time>2026-04-26T08:49:10Z</time></trkpt><trkpt lat="48.578912739339835" lon="-4.409449470747796"><ele>72.0</ele><time>2026-04-26T08:49:11Z</time></trkpt><trkpt lat="48.57893812705112" lon="-4.4093000660704"><ele>72.0</ele><time>2026-04-26T08:49:12Z</time></trkpt><trkpt lat="48.57897655709644" lon="-4.409144847718163"><ele>72.0</ele><time>2026-04-26T08:49:13Z</time></trkpt><trkpt lat="48.57901596271344" lon="-4.40898568906812"><ele>72.0</ele><time>2026-04-26T08:49:14Z</time></trkpt><trkpt lat="48.579057385035796" lon="-4.408818384950844"><ele>72.0</ele><time>2026-04-26T08:49:15Z</time></trkpt><trkpt lat="48.579099426780125" lon="-4.4086485790289265"><ele>72.0</ele><time>2026-04-26T08:49:16Z</time></trkpt><trkpt lat="48.57915699559894" lon="-4.408484210662102"><ele>72.0</ele><time>2026-04-26T08:49:17Z</time></trkpt><trkpt lat="48.579198950786555" lon="-4.40831192030741"><ele>72.0</ele><time>2026-04-26T08:49:18Z</time></trkpt><trkpt lat="48.57924256197735" lon="-4.408140521239339"><ele>72.0</ele><time>2026-04-26T08:49:19Z</time></trkpt><trkpt lat="48.57928437343467" lon="-4.407961359856894"><ele>72.25</ele><time>2026-04-26T08:49:20Z</time></trkpt><trkpt lat="48.579328726259995" lon="-4.407783752043474"><ele>72.5</ele><time>2026-04-26T08:49:21Z</time></trkpt><trkpt lat="48.5793723920458" lon="-4.4076017691576395"><ele>72.75</ele><time>2026-04-26T08:49:22Z</time></trkpt><trkpt lat="48.579418545564835" lon="-4.40741805061453"><ele>73.0</ele><time>2026-04-26T08:49:23Z</time></trkpt><trkpt lat="48.57946819043594" lon="-4.4072326136312645"><ele>73.25</ele><time>2026-04-26T08:49:24Z</time></trkpt><trkpt lat="48.5795157374818" lon="-4.407049016192431"><ele>73.5</ele><time>2026-04-26T08:49:25Z</time></trkpt><trkpt lat="48.57956103569742" lon="-4.406875163729263"><ele>73.75</ele><time>2026-04-26T08:49:26Z</time></trkpt><trkpt lat="48.57959984005405" lon="-4.4067224385650965"><ele>74.0</ele><time>2026-04-26T08:49:27Z</time></trkpt><trkpt lat="48.57963786072783" lon="-4.406574266801844"><ele>74.0</ele><time>2026-04-26T08:49:28Z</time></trkpt><trkpt lat="48.57967189911517" lon="-4.406441663858495"><ele>74.0</ele><time>2026-04-26T08:49:29Z</time></trkpt><trkpt lat="48.57970411243258" lon="-4.406316747949981"><ele>74.0</ele><time>2026-04-26T08:49:30Z</time></trkpt><trkpt lat="48.57973691672" lon="-4.406186752115154"><ele>74.0</ele><time>2026-04-26T08:49:31Z</time></trkpt><trkpt lat="48.579768060190204" lon="-4.40606278341805"><ele>74.0</ele><time>2026-04-26T08:49:32Z</time></trkpt><trkpt lat="48.57979357877577" lon="-4.4059441085037365"><ele>74.0</ele><time>2026-04-26T08:49:33Z</time></trkpt><trkpt lat="48.579819176318146" lon="-4.405843995304461"><ele>74.0</ele><time>2026-04-26T08:49:34Z</time></trkpt><trkpt lat="48.57984776431327" lon="-4.40575244196478"><ele>74.0</ele><time>2026-04-26T08:49:35Z</time></trkpt><trkpt lat="48.579867221881905" lon="-4.405604758603932"><ele>74.0</ele><time>2026-04-26T08:49:37Z</time></trkpt><trkpt lat="48.58201124997969" lon="-4.401802608103132"><ele>74.16666666666667</ele><time>2026-04-26T08:50:40.001Z</time></trkpt><trkpt lat="48.5820744903108" lon="-4.401868710732246"><ele>74.33333333333334</ele><time>2026-04-26T08:50:41.001Z</time></trkpt><trkpt lat="48.58214022403783" lon="-4.4019205990185215"><ele>74.5</ele><time>2026-04-26T08:50:42.001Z</time></trkpt><trkpt lat="48.582208137330916" lon="-4.40197975857833"><ele>74.66666666666667</ele><time>2026-04-26T08:50:43.001Z</time></trkpt><trkpt lat="48.58229828173154" lon="-4.402047545278198"><ele>74.83333333333333</ele><time>2026-04-26T08:50:44.001Z</time></trkpt><trkpt lat="48.582384438301425" lon="-4.40211246037493"><ele>75.0</ele><time>2026-04-26T08:50:45Z</time></trkpt><trkpt lat="48.58248255467987" lon="-4.402174926978339"><ele>75.0</ele><time>2026-04-26T08:50:46Z</time></trkpt><trkpt lat="48.58257892534739" lon="-4.402244190756269"><ele>75.0</ele><time>2026-04-26T08:50:47Z</time></trkpt><trkpt lat="48.582682066770374" lon="-4.402310166363456"><ele>75.0</ele><time>2026-04-26T08:50:48Z</time></trkpt><trkpt lat="48.58279188639361" lon="-4.4023850421910655"><ele>75.0</ele><time>2026-04-26T08:50:49Z</time></trkpt><trkpt lat="48.582894786969675" lon="-4.402451270081412"><ele>75.16666666666667</ele><time>2026-04-26T08:50:50Z</time></trkpt><trkpt lat="48.58299591195066" lon="-4.402502051979701"><ele>75.33333333333333</ele><time>2026-04-26T08:50:51Z</time></trkpt><trkpt lat="48.58308199552429" lon="-4.402548606342287"><ele>75.5</ele><time>2026-04-26T08:50:52Z</time></trkpt><trkpt lat="48.5831486344102" lon="-4.4025776048982435"><ele>75.66666666666666</ele><time>2026-04-26T08:50:53Z</time></trkpt><trkpt lat="48.58321784693671" lon="-4.40260549611917"><ele>75.83333333333333</ele><time>2026-04-26T08:50:54Z</time></trkpt><trkpt lat="48.58326880496115" lon="-4.40270965277537"><ele>76.0</ele><time>2026-04-26T08:50:56Z</time></trkpt><trkpt lat="48.58324289637574" lon="-4.402802981762288"><ele>76.0</ele><time>2026-04-26T08:50:59Z</time></trkpt><trkpt lat="48.58318935273485" lon="-4.40286709791323"><ele>76.0</ele><time>2026-04-26T08:51:20Z</time></trkpt><trkpt lat="48.583182484773296" lon="-4.402987569803454"><ele>76.0</ele><time>2026-04-26T08:51:22Z</time></trkpt><trkpt lat="48.58313400039937" lon="-4.403092022596949"><ele>76.0</ele><time>2026-04-26T08:51:24Z</time></trkpt><trkpt lat="48.58310663409603" lon="-4.403193635550492"><ele>76.0</ele><time>2026-04-26T08:51:25Z</time></trkpt><trkpt lat="48.58307953533943" lon="-4.403281430783834"><ele>76.0</ele><time>2026-04-26T08:51:26Z</time></trkpt><trkpt lat="48.58305516607313" lon="-4.403386467881968"><ele>76.0</ele><time>2026-04-26T08:51:27Z</time></trkpt><trkpt lat="48.5830250540381" lon="-4.403525067378442"><ele>76.0</ele><time>2026-04-26T08:51:28Z</time></trkpt><trkpt lat="48.582987312007724" lon="-4.403659911643494"><ele>76.0</ele><time>2026-04-26T08:51:29Z</time></trkpt><trkpt lat="48.58295525590723" lon="-4.403800522015746"><ele>76.0</ele><time>2026-04-26T08:51:30Z</time></trkpt><trkpt lat="48.58292404649132" lon="-4.403946217494777"><ele>76.0</ele><time>2026-04-26T08:51:31Z</time></trkpt><trkpt lat="48.582889141396265" lon="-4.404096566196093"><ele>76.0</ele><time>2026-04-26T08:51:32Z</time></trkpt><trkpt lat="48.58285067986883" lon="-4.404254378243778"><ele>76.0</ele><time>2026-04-26T08:51:33Z</time></trkpt><trkpt lat="48.58281137695309" lon="-4.404411242024669"><ele>76.0</ele><time>2026-04-26T08:51:34Z</time></trkpt><trkpt lat="48.58276999716831" lon="-4.404563312127579"><ele>76.0</ele><time>2026-04-26T08:51:35Z</time></trkpt><trkpt lat="48.582728439196764" lon="-4.404700184242745"><ele>76.0</ele><time>2026-04-26T08:51:36Z</time></trkpt><trkpt lat="48.58269783194557" lon="-4.404828422228426"><ele>76.0</ele><time>2026-04-26T08:51:37Z</time></trkpt><trkpt lat="48.582665263015734" lon="-4.4049799005596775"><ele>75.5</ele><time>2026-04-26T08:51:38Z</time></trkpt><trkpt lat="48.582638871466145" lon="-4.405152242366678"><ele>75.0</ele><time>2026-04-26T08:51:39Z</time></trkpt><trkpt lat="48.58234047210744" lon="-4.40692875847907"><ele>74.83333333333333</ele><time>2026-04-26T08:51:50Z</time></trkpt><trkpt lat="48.582340504358235" lon="-4.407059770550795"><ele>74.66666666666667</ele><time>2026-04-26T08:51:51Z</time></trkpt><trkpt lat="48.582352935568004" lon="-4.407187968506692"><ele>74.5</ele><time>2026-04-26T08:51:52Z</time></trkpt><trkpt lat="48.58236927458426" lon="-4.407325411863316"><ele>74.33333333333334</ele><time>2026-04-26T08:51:53Z</time></trkpt><trkpt lat="48.582381555568475" lon="-4.407450206102775"><ele>74.16666666666667</ele><time>2026-04-26T08:51:54Z</time></trkpt><trkpt lat="48.582376751796055" lon="-4.407596868372731"><ele>74.0</ele><time>2026-04-26T08:51:55Z</time></trkpt><trkpt lat="48.58236174500972" lon="-4.407753462097756"><ele>73.8</ele><time>2026-04-26T08:51:56Z</time></trkpt><trkpt lat="48.58234508945992" lon="-4.4078990880711935"><ele>73.60000000000001</ele><time>2026-04-26T08:51:57Z</time></trkpt><trkpt lat="48.58232466656294" lon="-4.408021298886877"><ele>73.4</ele><time>2026-04-26T08:51:58Z</time></trkpt><trkpt lat="48.58231106176546" lon="-4.408118626219767"><ele>73.2</ele><time>2026-04-26T08:51:59Z</time></trkpt><trkpt lat="48.58228147636075" lon="-4.408264323502559"><ele>73.0</ele><time>2026-04-26T08:52:01Z</time></trkpt><trkpt lat="48.582266968471785" lon="-4.408460051462427"><ele>72.66666666666666</ele><time>2026-04-26T08:52:03Z</time></trkpt><trkpt lat="48.58225455033669" lon="-4.408581736169103"><ele>72.33333333333333</ele><time>2026-04-26T08:52:05Z</time></trkpt><trkpt lat="48.58223807757223" lon="-4.408732135463148"><ele>72.0</ele><time>2026-04-26T08:52:09.001Z</time></trkpt><trkpt lat="48.58221987364766" lon="-4.4088253979009036"><ele>71.66666666666667</ele><time>2026-04-26T08:52:10.001Z</time></trkpt><trkpt lat="48.582208077872565" lon="-4.408934636849672"><ele>71.33333333333334</ele><time>2026-04-26T08:52:11.001Z</time></trkpt><trkpt lat="48.58220107524644" lon="-4.409031909186243"><ele>71.0</ele><time>2026-04-26T08:52:12.001Z</time></trkpt><trkpt lat="48.58218271766055" lon="-4.409197095717457"><ele>71.0</ele><time>2026-04-26T08:52:14.001Z</time></trkpt><trkpt lat="48.58214558825217" lon="-4.409374503316471"><ele>71.0</ele><time>2026-04-26T08:52:16.001Z</time></trkpt><trkpt lat="48.582115538706304" lon="-4.409480913694676"><ele>71.0</ele><time>2026-04-26T08:52:17.001Z</time></trkpt><trkpt lat="48.58208547429659" lon="-4.409615843617047"><ele>71.0</ele><time>2026-04-26T08:52:18.001Z</time></trkpt><trkpt lat="48.582053694421745" lon="-4.4097558086747775"><ele>71.0</ele><time>2026-04-26T08:52:19.001Z</time></trkpt><trkpt lat="48.58202711800445" lon="-4.409881131217933"><ele>71.0</ele><time>2026-04-26T08:52:20.001Z</time></trkpt><trkpt lat="48.58199807869413" lon="-4.4100143622534205"><ele>71.0</ele><time>2026-04-26T08:52:21.001Z</time></trkpt><trkpt lat="48.58196705827045" lon="-4.4101505096587035"><ele>71.0</ele><time>2026-04-26T08:52:22.001Z</time></trkpt><trkpt lat="48.58194321621414" lon="-4.410267992596106"><ele>71.0</ele><time>2026-04-26T08:52:23.001Z</time></trkpt><trkpt lat="48.58192038451617" lon="-4.4103739367595685"><ele>71.0</ele><time>2026-04-26T08:52:24.001Z</time></trkpt><trkpt lat="48.58188977989768" lon="-4.410480118484794"><ele>71.0</ele><time>2026-04-26T08:52:25.001Z</time></trkpt><trkpt lat="48.58187073474186" lon="-4.410614149918842"><ele>70.6</ele><time>2026-04-26T08:52:27.001Z</time></trkpt><trkpt lat="48.58185087478044" lon="-4.410719417762366"><ele>70.19999999999999</ele><time>2026-04-26T08:52:29.001Z</time></trkpt><trkpt lat="48.58177541657525" lon="-4.410873900583555"><ele>69.80000000000001</ele><time>2026-04-26T08:52:31.001Z</time></trkpt><trkpt lat="48.58171500756105" lon="-4.410949723591954"><ele>69.4</ele><time>2026-04-26T08:52:32.001Z</time></trkpt><trkpt lat="48.58164691678769" lon="-4.411035116838132"><ele>69.0</ele><time>2026-04-26T08:52:33.001Z</time></trkpt><trkpt lat="48.58158242000651" lon="-4.41114133270656"><ele>69.0</ele><time>2026-04-26T08:52:34.001Z</time></trkpt><trkpt lat="48.581534064504595" lon="-4.41125805692694"><ele>69.0</ele><time>2026-04-26T08:52:35.001Z</time></trkpt><trkpt lat="48.58150019941954" lon="-4.411388906681948"><ele>69.0</ele><time>2026-04-26T08:52:36.001Z</time></trkpt><trkpt lat="48.581465667251415" lon="-4.411521909499097"><ele>69.0</ele><time>2026-04-26T08:52:37.001Z</time></trkpt><trkpt lat="48.58142571960568" lon="-4.411675467853316"><ele>69.0</ele><time>2026-04-26T08:52:38.001Z</time></trkpt><trkpt lat="48.58137994667575" lon="-4.411822268168715"><ele>68.0</ele><time>2026-04-26T08:52:39.001Z</time></trkpt><trkpt lat="48.58089941370414" lon="-4.412658443383426"><ele>68.0</ele><time>2026-04-26T08:52:50Z</time></trkpt><trkpt lat="48.58082713307607" lon="-4.412707511948461"><ele>68.0</ele><time>2026-04-26T08:52:51Z</time></trkpt><trkpt lat="48.580741577962385" lon="-4.412767333121943"><ele>68.0</ele><time>2026-04-26T08:52:52Z</time></trkpt><trkpt lat="48.58065959166219" lon="-4.412835920556705"><ele>68.0</ele><time>2026-04-26T08:52:53Z</time></trkpt><trkpt lat="48.58056329139886" lon="-4.412887279747863"><ele>68.0</ele><time>2026-04-26T08:52:54Z</time></trkpt><trkpt lat="48.580478861992574" lon="-4.412954436403123"><ele>68.0</ele><time>2026-04-26T08:52:55Z</time></trkpt><trkpt lat="48.580386886534484" lon="-4.413015413482012"><ele>68.0</ele><time>2026-04-26T08:52:56Z</time></trkpt><trkpt lat="48.58029747564722" lon="-4.413083239273745"><ele>68.0</ele><time>2026-04-26T08:52:57Z</time></trkpt><trkpt lat="48.58020977073739" lon="-4.413140004241428"><ele>68.0</ele><time>2026-04-26T08:52:58Z</time></trkpt><trkpt lat="48.580126758496874" lon="-4.413185147716034"><ele>68.0</ele><time>2026-04-26T08:52:59Z</time></trkpt><trkpt lat="48.580053779342364" lon="-4.413220341641848"><ele>68.16666666666667</ele><time>2026-04-26T08:53:00Z</time></trkpt><trkpt lat="48.57997867223598" lon="-4.41326633965757"><ele>68.33333333333334</ele><time>2026-04-26T08:53:01Z</time></trkpt><trkpt lat="48.57991139421169" lon="-4.413310952368033"><ele>68.5</ele><time>2026-04-26T08:53:02Z</time></trkpt><trkpt lat="48.579802126935164" lon="-4.413352885645779"><ele>68.66666666666667</ele><time>2026-04-26T08:53:04Z</time></trkpt><trkpt lat="48.57973527004465" lon="-4.4133906769562214"><ele>68.83333333333333</ele><time>2026-04-26T08:53:06Z</time></trkpt><trkpt lat="48.57966253178904" lon="-4.413496934241155"><ele>69.0</ele><time>2026-04-26T08:53:09Z</time></trkpt><trkpt lat="48.579657711210366" lon="-4.413641544993539"><ele>69.0</ele><time>2026-04-26T08:53:11Z</time></trkpt><trkpt lat="48.57966232492141" lon="-4.413747917000142"><ele>69.0</ele><time>2026-04-26T08:53:12Z</time></trkpt><trkpt lat="48.5796929046834" lon="-4.413959613146313"><ele>69.0</ele><time>2026-04-26T08:53:14Z</time></trkpt><trkpt lat="48.5797050098427" lon="-4.414101939504419"><ele>69.0</ele><time>2026-04-26T08:53:15Z</time></trkpt><trkpt lat="48.579701374053954" lon="-4.414218893070042"><ele>69.0</ele><time>2026-04-26T08:53:16Z</time></trkpt><trkpt lat="48.579684330786186" lon="-4.414341965304334"><ele>68.8</ele><time>2026-04-26T08:53:17Z</time></trkpt><trkpt lat="48.57967206920127" lon="-4.41447100943753"><ele>68.60000000000001</ele><time>2026-04-26T08:53:18Z</time></trkpt><trkpt lat="48.57965729431617" lon="-4.414616429131076"><ele>68.4</ele><time>2026-04-26T08:53:19Z</time></trkpt><trkpt lat="48.57964216693458" lon="-4.41475337488017"><ele>68.2</ele><time>2026-04-26T08:53:20Z</time></trkpt><trkpt lat="48.57959853538204" lon="-4.414893801512946"><ele>68.0</ele><time>2026-04-26T08:53:21Z</time></trkpt><trkpt lat="48.57956028859692" lon="-4.415021757501608"><ele>68.0</ele><time>2026-04-26T08:53:22Z</time></trkpt><trkpt lat="48.579529872195785" lon="-4.4151588676853795"><ele>68.0</ele><time>2026-04-26T08:53:23Z</time></trkpt><trkpt lat="48.57949507079995" lon="-4.415309450562443"><ele>68.0</ele><time>2026-04-26T08:53:24Z</time></trkpt><trkpt lat="48.579452862374104" lon="-4.415465342084153"><ele>68.0</ele><time>2026-04-26T08:53:25Z</time></trkpt><trkpt lat="48.57941110194319" lon="-4.415628945582079"><ele>68.0</ele><time>2026-04-26T08:53:26Z</time></trkpt><trkpt lat="48.579370240917854" lon="-4.415796593645642"><ele>68.25</ele><time>2026-04-26T08:53:27Z</time></trkpt><trkpt lat="48.57933613611779" lon="-4.4159686199396875"><ele>68.5</ele><time>2026-04-26T08:53:28Z</time></trkpt><trkpt lat="48.57929859466438" lon="-4.416136238364709"><ele>68.75</ele><time>2026-04-26T08:53:29Z</time></trkpt><trkpt lat="48.57926191878659" lon="-4.416306527660292"><ele>69.0</ele><time>2026-04-26T08:53:30Z</time></trkpt><trkpt lat="48.57922497451963" lon="-4.416454092760955"><ele>69.0</ele><time>2026-04-26T08:53:31Z</time></trkpt><trkpt lat="48.57919986091656" lon="-4.416591474794399"><ele>69.0</ele><time>2026-04-26T08:53:32Z</time></trkpt><trkpt lat="48.579174920855024" lon="-4.416724975524958"><ele>69.0</ele><time>2026-04-26T08:53:33Z</time></trkpt><trkpt lat="48.579143733556414" lon="-4.416850048245671"><ele>69.0</ele><time>2026-04-26T08:53:34Z</time></trkpt><trkpt lat="48.57911443556545" lon="-4.416973200359473"><ele>69.0</ele><time>2026-04-26T08:53:35Z</time></trkpt><trkpt lat="48.57908558188328" lon="-4.417094056674632"><ele>69.0</ele><time>2026-04-26T08:53:36Z</time></trkpt><trkpt lat="48.579054209780026" lon="-4.417211767704353"><ele>68.66666666666667</ele><time>2026-04-26T08:53:37Z</time></trkpt><trkpt lat="48.57902794336126" lon="-4.417325786139787"><ele>68.33333333333334</ele><time>2026-04-26T08:53:38Z</time></trkpt><trkpt lat="48.57900312096098" lon="-4.417440218154695"><ele>68.0</ele><time>2026-04-26T08:53:39Z</time></trkpt><trkpt lat="48.5787937125082" lon="-4.418964297079346"><ele>68.0</ele><time>2026-04-26T08:53:50Z</time></trkpt><trkpt lat="48.57877268196982" lon="-4.419091566492445"><ele>68.0</ele><time>2026-04-26T08:53:51Z</time></trkpt><trkpt lat="48.57875786920038" lon="-4.419210279095704"><ele>68.0</ele><time>2026-04-26T08:53:52Z</time></trkpt><trkpt lat="48.57874135649891" lon="-4.419337861081339"><ele>68.0</ele><time>2026-04-26T08:53:53Z</time></trkpt><trkpt lat="48.578730329266946" lon="-4.419465110751453"><ele>68.0</ele><time>2026-04-26T08:53:54Z</time></trkpt><trkpt lat="48.57872237982838" lon="-4.4196097734367"><ele>68.0</ele><time>2026-04-26T08:53:55Z</time></trkpt><trkpt lat="48.57871693947158" lon="-4.419747625104062"><ele>68.0</ele><time>2026-04-26T08:53:56Z</time></trkpt><trkpt lat="48.578713594579895" lon="-4.419883024545526"><ele>68.0</ele><time>2026-04-26T08:53:57Z</time></trkpt><trkpt lat="48.57870444184835" lon="-4.420026552382371"><ele>68.0</ele><time>2026-04-26T08:53:58Z</time></trkpt><trkpt lat="48.57870499458912" lon="-4.420174409024562"><ele>68.0</ele><time>2026-04-26T08:53:59Z</time></trkpt><trkpt lat="48.57871199987687" lon="-4.4203066518749665"><ele>68.0</ele><time>2026-04-26T08:54:00Z</time></trkpt><trkpt lat="48.57872092874978" lon="-4.42043996668229"><ele>68.2</ele><time>2026-04-26T08:54:01Z</time></trkpt><trkpt lat="48.57873323256518" lon="-4.420580248350678"><ele>68.4</ele><time>2026-04-26T08:54:02Z</time></trkpt><trkpt lat="48.57874992843862" lon="-4.420726488096705"><ele>68.60000000000001</ele><time>2026-04-26T08:54:03Z</time></trkpt><trkpt lat="48.57876565406397" lon="-4.420884891268503"><ele>68.8</ele><time>2026-04-26T08:54:04Z</time></trkpt><trkpt lat="48.578786167337505" lon="-4.4210541651459065"><ele>69.0</ele><time>2026-04-26T08:54:05Z</time></trkpt><trkpt lat="48.5788001724226" lon="-4.421227901747836"><ele>68.5</ele><time>2026-04-26T08:54:06Z</time></trkpt><trkpt lat="48.57882024032538" lon="-4.421427548706063"><ele>68.0</ele><time>2026-04-26T08:54:07Z</time></trkpt><trkpt lat="48.578831636607575" lon="-4.421623930529235"><ele>67.5</ele><time>2026-04-26T08:54:08Z</time></trkpt><trkpt lat="48.578844647031566" lon="-4.4218308182556365"><ele>67.0</ele><time>2026-04-26T08:54:09Z</time></trkpt><trkpt lat="48.57885396963057" lon="-4.422052294931585"><ele>66.5</ele><time>2026-04-26T08:54:10Z</time></trkpt><trkpt lat="48.578860080507425" lon="-4.422280018840644"><ele>66.0</ele><time>2026-04-26T08:54:11Z</time></trkpt><trkpt lat="48.57886436074309" lon="-4.422506362091145"><ele>65.5</ele><time>2026-04-26T08:54:12Z</time></trkpt><trkpt lat="48.578863557311344" lon="-4.422694602724928"><ele>65.0</ele><time>2026-04-26T08:54:13Z</time></trkpt><trkpt lat="48.5788717377344" lon="-4.422841805711436"><ele>65.0</ele><time>2026-04-26T08:54:14Z</time></trkpt><trkpt lat="48.57887607467167" lon="-4.422940384712679"><ele>65.0</ele><time>2026-04-26T08:54:15Z</time></trkpt><trkpt lat="48.57888347197043" lon="-4.423050154984885"><ele>65.0</ele><time>2026-04-26T08:54:17Z</time></trkpt><trkpt lat="48.57891551211741" lon="-4.423172238828805"><ele>65.0</ele><time>2026-04-26T08:54:19Z</time></trkpt><trkpt lat="48.57894219489725" lon="-4.423259799955846"><ele>65.0</ele><time>2026-04-26T08:54:21Z</time></trkpt><trkpt lat="48.57913083614887" lon="-4.423306887280569"><ele>66.0</ele><time>2026-04-26T08:54:38.999Z</time></trkpt><trkpt lat="48.579789340121884" lon="-4.423370638650012"><ele>66.0</ele><time>2026-04-26T08:54:49.999Z</time></trkpt><trkpt lat="48.57985437937489" lon="-4.4233803686536595"><ele>66.0</ele><time>2026-04-26T08:54:50.999Z</time></trkpt><trkpt lat="48.57991971201394" lon="-4.423388755616091"><ele>66.0</ele><time>2026-04-26T08:54:51.999Z</time></trkpt><trkpt lat="48.58003514385349" lon="-4.4234068226748615"><ele>66.0</ele><time>2026-04-26T08:54:53.999Z</time></trkpt><trkpt lat="48.5801467281089" lon="-4.4234045803134965"><ele>66.0</ele><time>2026-04-26T08:54:55.999Z</time></trkpt><trkpt lat="48.5802438022496" lon="-4.423414766697764"><ele>65.8</ele><time>2026-04-26T08:54:57.999Z</time></trkpt><trkpt lat="48.58036253849665" lon="-4.4234293436175545"><ele>65.6</ele><time>2026-04-26T08:54:59.999Z</time></trkpt><trkpt lat="48.5804762215073" lon="-4.423440845980672"><ele>65.4</ele><time>2026-04-26T08:55:01.999Z</time></trkpt><trkpt lat="48.58055398413108" lon="-4.42345782320412"><ele>65.2</ele><time>2026-04-26T08:55:02.999Z</time></trkpt><trkpt lat="48.58062395922632" lon="-4.423461948841164"><ele>65.0</ele><time>2026-04-26T08:55:03.999Z</time></trkpt><trkpt lat="48.580695286736514" lon="-4.423466624879949"><ele>65.0</ele><time>2026-04-26T08:55:04.999Z</time></trkpt><trkpt lat="48.580771447828084" lon="-4.423477382388006"><ele>65.0</ele><time>2026-04-26T08:55:05.999Z</time></trkpt><trkpt lat="48.58085504024312" lon="-4.423483026217792"><ele>65.0</ele><time>2026-04-26T08:55:06.999Z</time></trkpt><trkpt lat="48.58095650705592" lon="-4.423497205499567"><ele>65.0</ele><time>2026-04-26T08:55:07.999Z</time></trkpt><trkpt lat="48.581055758633745" lon="-4.423515565065805"><ele>65.0</ele><time>2026-04-26T08:55:08.999Z</time></trkpt><trkpt lat="48.58115893768602" lon="-4.423530548177479"><ele>64.16666666666667</ele><time>2026-04-26T08:55:09.999Z</time></trkpt><trkpt lat="48.581240007374205" lon="-4.42354019211845"><ele>63.333333333333336</ele><time>2026-04-26T08:55:10.999Z</time></trkpt><trkpt lat="48.58133531079674" lon="-4.423543362882455"><ele>62.5</ele><time>2026-04-26T08:55:12.999Z</time></trkpt><trkpt lat="48.581400326974375" lon="-4.423538959061435"><ele>61.66666666666667</ele><time>2026-04-26T08:55:15.999Z</time></trkpt><trkpt lat="48.581472380014596" lon="-4.4235327758495835"><ele>60.833333333333336</ele><time>2026-04-26T08:55:25.999Z</time></trkpt><trkpt lat="48.581550645416186" lon="-4.423402076579385"><ele>60.0</ele><time>2026-04-26T08:55:28.999Z</time></trkpt><trkpt lat="48.58159057812893" lon="-4.42324821204764"><ele>60.0</ele><time>2026-04-26T08:55:30.999Z</time></trkpt><trkpt lat="48.581580176305074" lon="-4.4231470801546156"><ele>60.0</ele><time>2026-04-26T08:55:31.999Z</time></trkpt><trkpt lat="48.58155594734662" lon="-4.423058800016944"><ele>60.0</ele><time>2026-04-26T08:55:32.999Z</time></trkpt><trkpt lat="48.581531361890704" lon="-4.422964289168156"><ele>60.0</ele><time>2026-04-26T08:55:33.999Z</time></trkpt><trkpt lat="48.58151185420763" lon="-4.42281479150316"><ele>60.0</ele><time>2026-04-26T08:55:35.999Z</time></trkpt><trkpt lat="48.58148265243352" lon="-4.422650246820274"><ele>60.0</ele><time>2026-04-26T08:55:37.999Z</time></trkpt><trkpt lat="48.58134792056993" lon="-4.421611226911306"><ele>60.166666666666664</ele><time>2026-04-26T08:55:49.999Z</time></trkpt><trkpt lat="48.58133333678617" lon="-4.421487342493684"><ele>60.33333333333333</ele><time>2026-04-26T08:55:51.999Z</time></trkpt><trkpt lat="48.58128590240973" lon="-4.4213640978398585"><ele>60.5</ele><time>2026-04-26T08:55:53.999Z</time></trkpt><trkpt lat="48.58127793906371" lon="-4.42124220065087"><ele>60.666666666666664</ele><time>2026-04-26T08:55:55.999Z</time></trkpt><trkpt lat="48.581306422558754" lon="-4.421139669670417"><ele>60.83333333333333</ele><time>2026-04-26T08:55:56.999Z</time></trkpt><trkpt lat="48.581340977033435" lon="-4.421017361729346"><ele>61.0</ele><time>2026-04-26T08:55:58.999Z</time></trkpt><trkpt lat="48.58139631327452" lon="-4.420940692084407"><ele>60.99999999999999</ele><time>2026-04-26T08:56:00.999Z</time></trkpt><trkpt lat="48.58145106025842" lon="-4.42084630396431"><ele>61.0</ele><time>2026-04-26T08:56:02.999Z</time></trkpt><trkpt lat="48.581536978821866" lon="-4.4208610454042825"><ele>61.0</ele><time>2026-04-26T08:56:05.999Z</time></trkpt><trkpt lat="48.58163769404781" lon="-4.420829888855185"><ele>61.0</ele><time>2026-04-26T08:56:08.998Z</time></trkpt><trkpt lat="48.58172589760902" lon="-4.420798577398492"><ele>60.99999999999999</ele><time>2026-04-26T08:56:10.998Z</time></trkpt><trkpt lat="48.581799618091715" lon="-4.420748442928089"><ele>61.0</ele><time>2026-04-26T08:56:12.998Z</time></trkpt><trkpt lat="48.58191209866471" lon="-4.4206978630827996"><ele>61.0</ele><time>2026-04-26T08:56:14.998Z</time></trkpt><trkpt lat="48.58197790255254" lon="-4.420657211147707"><ele>61.0</ele><time>2026-04-26T08:56:15.998Z</time></trkpt><trkpt lat="48.582081421487565" lon="-4.420600438245161"><ele>61.0</ele><time>2026-04-26T08:56:17.998Z</time></trkpt><trkpt lat="48.582180224194325" lon="-4.42055728669561"><ele>61.0</ele><time>2026-04-26T08:56:19.998Z</time></trkpt><trkpt lat="48.58234947875589" lon="-4.42055516082811"><ele>67.0</ele><time>2026-04-26T08:56:24.998Z</time></trkpt><trkpt lat="48.583942835385" lon="-4.422683614388839"><ele>67.0</ele><time>2026-04-26T08:57:49.998Z</time></trkpt><trkpt lat="48.583924848932135" lon="-4.422841581022547"><ele>67.0</ele><time>2026-04-26T08:57:50.997Z</time></trkpt><trkpt lat="48.583911770296545" lon="-4.42297210790767"><ele>67.0</ele><time>2026-04-26T08:57:51.997Z</time></trkpt><trkpt lat="48.58390366776249" lon="-4.4230837318606175"><ele>67.0</ele><time>2026-04-26T08:57:52.997Z</time></trkpt><trkpt lat="48.583898683678115" lon="-4.423186811241694"><ele>67.0</ele><time>2026-04-26T08:57:53.996Z</time></trkpt><trkpt lat="48.58390309701768" lon="-4.423318037561572"><ele>67.0</ele><time>2026-04-26T08:57:54.996Z</time></trkpt><trkpt lat="48.58391384037968" lon="-4.423438391716931"><ele>66.83333333333333</ele><time>2026-04-26T08:57:55.996Z</time></trkpt><trkpt lat="48.58392905456843" lon="-4.423566695979395"><ele>66.66666666666666</ele><time>2026-04-26T08:57:56.996Z</time></trkpt><trkpt lat="48.58393655763586" lon="-4.423681105750334"><ele>66.5</ele><time>2026-04-26T08:57:57.996Z</time></trkpt><trkpt lat="48.58395351117766" lon="-4.423790755414552"><ele>66.33333333333333</ele><time>2026-04-26T08:57:58.996Z</time></trkpt><trkpt lat="48.583970586490615" lon="-4.423903265355523"><ele>66.16666666666667</ele><time>2026-04-26T08:57:59.996Z</time></trkpt><trkpt lat="48.58398679974266" lon="-4.424009668406803"><ele>66.0</ele><time>2026-04-26T08:58:00.996Z</time></trkpt><trkpt lat="48.58400692732825" lon="-4.424117979155918"><ele>65.85714285714286</ele><time>2026-04-26T08:58:01.996Z</time></trkpt><trkpt lat="48.5840246022571" lon="-4.424223718345526"><ele>65.71428571428572</ele><time>2026-04-26T08:58:02.996Z</time></trkpt><trkpt lat="48.58403980271438" lon="-4.424326190608129"><ele>65.57142857142858</ele><time>2026-04-26T08:58:03.996Z</time></trkpt><trkpt lat="48.58405294502228" lon="-4.4244400320278086"><ele>65.42857142857143</ele><time>2026-04-26T08:58:04.996Z</time></trkpt><trkpt lat="48.5840619229213" lon="-4.424535141684825"><ele>65.28571428571429</ele><time>2026-04-26T08:58:05.996Z</time></trkpt><trkpt lat="48.58407451372409" lon="-4.4246286922946725"><ele>65.14285714285715</ele><time>2026-04-26T08:58:06.996Z</time></trkpt><trkpt lat="48.58408902990112" lon="-4.424724560877318"><ele>65.0</ele><time>2026-04-26T08:58:07.996Z</time></trkpt><trkpt lat="48.58410453740205" lon="-4.424825826405377"><ele>64.66666666666667</ele><time>2026-04-26T08:58:08.996Z</time></trkpt><trkpt lat="48.584113821850075" lon="-4.424928314723567"><ele>64.33333333333334</ele><time>2026-04-26T08:58:09.996Z</time></trkpt><trkpt lat="48.58414653813683" lon="-4.425105951807558"><ele>64.0</ele><time>2026-04-26T08:58:11.996Z</time></trkpt><trkpt lat="48.58417871639639" lon="-4.4252544936788745"><ele>63.66666666666667</ele><time>2026-04-26T08:58:13.996Z</time></trkpt><trkpt lat="48.584223130814216" lon="-4.4253597883008835"><ele>63.333333333333336</ele><time>2026-04-26T08:58:15.996Z</time></trkpt><trkpt lat="48.58426627043069" lon="-4.425448622984909"><ele>63.0</ele><time>2026-04-26T08:58:18.996Z</time></trkpt><trkpt lat="48.58433185829072" lon="-4.4255203756674275"><ele>62.5</ele><time>2026-04-26T08:58:20.996Z</time></trkpt><trkpt lat="48.58441513706197" lon="-4.425554074170596"><ele>62.0</ele><time>2026-04-26T08:58:22.996Z</time></trkpt><trkpt lat="48.584507582576556" lon="-4.425523637669607"><ele>61.5</ele><time>2026-04-26T08:58:25.996Z</time></trkpt><trkpt lat="48.584570571513574" lon="-4.4255301283211015"><ele>61.0</ele><time>2026-04-26T08:58:37.996Z</time></trkpt><trkpt lat="48.58501727817832" lon="-4.425136168239909"><ele>60.8</ele><time>2026-04-26T08:58:49.996Z</time></trkpt><trkpt lat="48.585124400657534" lon="-4.425126737468201"><ele>60.599999999999994</ele><time>2026-04-26T08:58:51.996Z</time></trkpt><trkpt lat="48.585237142599006" lon="-4.425111051238524"><ele>60.4</ele><time>2026-04-26T08:58:54.996Z</time></trkpt><trkpt lat="48.58530421912277" lon="-4.425038957091968"><ele>60.2</ele><time>2026-04-26T08:58:55.996Z</time></trkpt><trkpt lat="48.585385956898065" lon="-4.424997384618838"><ele>60.0</ele><time>2026-04-26T08:58:57.996Z</time></trkpt><trkpt lat="48.58545965188103" lon="-4.424976266059718"><ele>60.0</ele><time>2026-04-26T08:58:59.996Z</time></trkpt><trkpt lat="48.58555065525039" lon="-4.424921798233591"><ele>60.0</ele><time>2026-04-26T08:59:01.996Z</time></trkpt><trkpt lat="48.58562177445361" lon="-4.424865509489297"><ele>60.0</ele><time>2026-04-26T08:59:03.996Z</time></trkpt><trkpt lat="48.58568448062172" lon="-4.424774104358591"><ele>60.0</ele><time>2026-04-26T08:59:05.996Z</time></trkpt><trkpt lat="48.5857550836895" lon="-4.42469917222861"><ele>60.0</ele><time>2026-04-26T08:59:06.996Z</time></trkpt><trkpt lat="48.58580657204394" lon="-4.42456526016988"><ele>60.166666666666664</ele><time>2026-04-26T08:59:08.996Z</time></trkpt><trkpt lat="48.58583853718321" lon="-4.424468253469775"><ele>60.33333333333333</ele><time>2026-04-26T08:59:10.996Z</time></trkpt><trkpt lat="48.58588537113972" lon="-4.42437330632132"><ele>60.5</ele><time>2026-04-26T08:59:14.996Z</time></trkpt><trkpt lat="48.58590354370954" lon="-4.424275707437011"><ele>60.666666666666664</ele><time>2026-04-26T08:59:16.996Z</time></trkpt><trkpt lat="48.58594182588347" lon="-4.424143149797663"><ele>60.83333333333333</ele><time>2026-04-26T08:59:18.996Z</time></trkpt><trkpt lat="48.58596799609604" lon="-4.423992755892921"><ele>61.0</ele><time>2026-04-26T08:59:20.996Z</time></trkpt><trkpt lat="48.58596983323828" lon="-4.42383152093333"><ele>61.4</ele><time>2026-04-26T08:59:22.996Z</time></trkpt><trkpt lat="48.58594941242577" lon="-4.423698768020119"><ele>61.8</ele><time>2026-04-26T08:59:24.996Z</time></trkpt><trkpt lat="48.585927563528166" lon="-4.423549869448986"><ele>62.199999999999996</ele><time>2026-04-26T08:59:26.996Z</time></trkpt><trkpt lat="48.58591177379694" lon="-4.4233923447614"><ele>62.599999999999994</ele><time>2026-04-26T08:59:28.996Z</time></trkpt><trkpt lat="48.585877940840646" lon="-4.423240830257623"><ele>63.0</ele><time>2026-04-26T08:59:30.996Z</time></trkpt><trkpt lat="48.585869935167835" lon="-4.423143431877016"><ele>63.0</ele><time>2026-04-26T08:59:31.996Z</time></trkpt><trkpt lat="48.58586130446167" lon="-4.422972533206889"><ele>63.0</ele><time>2026-04-26T08:59:33.996Z</time></trkpt><trkpt lat="48.58583681863267" lon="-4.42285766055608"><ele>63.0</ele><time>2026-04-26T08:59:35.996Z</time></trkpt><trkpt lat="48.58583258022753" lon="-4.422704212109025"><ele>63.0</ele><time>2026-04-26T08:59:37.996Z</time></trkpt><trkpt lat="48.58589686834341" lon="-4.421616989226826"><ele>63.333333333333336</ele><time>2026-04-26T08:59:49.995Z</time></trkpt><trkpt lat="48.58587911126005" lon="-4.421441530675474"><ele>63.66666666666667</ele><time>2026-04-26T08:59:51.995Z</time></trkpt><trkpt lat="48.585871603190434" lon="-4.421336848637563"><ele>64.0</ele><time>2026-04-26T08:59:52.995Z</time></trkpt><trkpt lat="48.58586996738352" lon="-4.421239478615294"><ele>64.33333333333334</ele><time>2026-04-26T08:59:53.995Z</time></trkpt><trkpt lat="48.58585971221593" lon="-4.4210765864394945"><ele>64.66666666666667</ele><time>2026-04-26T08:59:55.995Z</time></trkpt><trkpt lat="48.58585661619473" lon="-4.420977296873186"><ele>65.0</ele><time>2026-04-26T09:00:24.995Z</time></trkpt><trkpt lat="48.58510525398726" lon="-4.413735068955212"><ele>66.0</ele><time>2026-04-26T09:01:49.994Z</time></trkpt><trkpt lat="48.58505035372966" lon="-4.413616223080914"><ele>67.0</ele><time>2026-04-26T09:01:52.994Z</time></trkpt><trkpt lat="48.58498875783154" lon="-4.413575894997245"><ele>68.0</ele><time>2026-04-26T09:01:53.994Z</time></trkpt><trkpt lat="48.584931546406075" lon="-4.413532672037573"><ele>69.0</ele><time>2026-04-26T09:01:54.994Z</time></trkpt><trkpt lat="48.58484799555559" lon="-4.413491057821195"><ele>70.0</ele><time>2026-04-26T09:01:55.994Z</time></trkpt><trkpt lat="48.58476224312719" lon="-4.413455267450502"><ele>71.0</ele><time>2026-04-26T09:01:56.994Z</time></trkpt><trkpt lat="48.584660017519944" lon="-4.413416828868055"><ele>71.0</ele><time>2026-04-26T09:01:57.994Z</time></trkpt><trkpt lat="48.58454771039134" lon="-4.41337435561027"><ele>71.0</ele><time>2026-04-26T09:01:58.994Z</time></trkpt><trkpt lat="48.58446962800342" lon="-4.413330608023899"><ele>71.0</ele><time>2026-04-26T09:01:59.994Z</time></trkpt><trkpt lat="48.58440537176381" lon="-4.413286252644102"><ele>71.0</ele><time>2026-04-26T09:02:00.994Z</time></trkpt><trkpt lat="48.58433600657796" lon="-4.413250528305715"><ele>71.0</ele><time>2026-04-26T09:02:01.994Z</time></trkpt><trkpt lat="48.58424697788797" lon="-4.413211942847475"><ele>71.0</ele><time>2026-04-26T09:02:02.994Z</time></trkpt><trkpt lat="48.584163579479004" lon="-4.413165285871216"><ele>71.0</ele><time>2026-04-26T09:02:03.994Z</time></trkpt><trkpt lat="48.5840945011948" lon="-4.41312048665248"><ele>71.0</ele><time>2026-04-26T09:02:04.994Z</time></trkpt><trkpt lat="48.58401737613993" lon="-4.413075582087366"><ele>71.0</ele><time>2026-04-26T09:02:05.994Z</time></trkpt><trkpt lat="48.583933335652944" lon="-4.413029432956021"><ele>71.0</ele><time>2026-04-26T09:02:06.994Z</time></trkpt><trkpt lat="48.5838466016382" lon="-4.413007487927005"><ele>71.0</ele><time>2026-04-26T09:02:07.994Z</time></trkpt><trkpt lat="48.583737866818794" lon="-4.412970961834767"><ele>71.0</ele><time>2026-04-26T09:02:08.994Z</time></trkpt><trkpt lat="48.58362448497606" lon="-4.412920377734479"><ele>71.25</ele><time>2026-04-26T09:02:09.994Z</time></trkpt><trkpt lat="48.58351135026822" lon="-4.412878368412491"><ele>71.5</ele><time>2026-04-26T09:02:10.994Z</time></trkpt><trkpt lat="48.58340113299727" lon="-4.4128281229705495"><ele>71.75</ele><time>2026-04-26T09:02:11.994Z</time></trkpt><trkpt lat="48.58329714394965" lon="-4.412781807955813"><ele>72.0</ele><time>2026-04-26T09:02:12.994Z</time></trkpt><trkpt lat="48.5831882574324" lon="-4.412735663969632"><ele>72.0</ele><time>2026-04-26T09:02:13.994Z</time></trkpt><trkpt lat="48.58307470965773" lon="-4.412694981391909"><ele>72.0</ele><time>2026-04-26T09:02:14.994Z</time></trkpt><trkpt lat="48.58294802230028" lon="-4.412647482317324"><ele>72.0</ele><time>2026-04-26T09:02:15.994Z</time></trkpt><trkpt lat="48.5828224169593" lon="-4.4126014327999705"><ele>72.0</ele><time>2026-04-26T09:02:16.994Z</time></trkpt><trkpt lat="48.58268747977333" lon="-4.412550795272271"><ele>71.75</ele><time>2026-04-26T09:02:17.994Z</time></trkpt><trkpt lat="48.58254917800166" lon="-4.412492394266748"><ele>71.5</ele><time>2026-04-26T09:02:18.994Z</time></trkpt><trkpt lat="48.58240411220335" lon="-4.412440574286962"><ele>71.25</ele><time>2026-04-26T09:02:19.994Z</time></trkpt><trkpt lat="48.58226337796363" lon="-4.412393454710412"><ele>71.0</ele><time>2026-04-26T09:02:20.994Z</time></trkpt><trkpt lat="48.58212314932892" lon="-4.412363732394508"><ele>70.0</ele><time>2026-04-26T09:02:21.994Z</time></trkpt><trkpt lat="48.58197863420203" lon="-4.412342320533335"><ele>69.0</ele><time>2026-04-26T09:02:22.994Z</time></trkpt><trkpt lat="48.58182119151771" lon="-4.412356945973715"><ele>68.0</ele><time>2026-04-26T09:02:23.994Z</time></trkpt><trkpt lat="48.58166157264163" lon="-4.412390882953804"><ele>68.0</ele><time>2026-04-26T09:02:24.994Z</time></trkpt><trkpt lat="48.58147119302348" lon="-4.412439391229042"><ele>68.0</ele><time>2026-04-26T09:02:25.994Z</time></trkpt><trkpt lat="48.58132006280978" lon="-4.412488816134834"><ele>68.0</ele><time>2026-04-26T09:02:26.994Z</time></trkpt><trkpt lat="48.58119176028984" lon="-4.412527664782688"><ele>68.0</ele><time>2026-04-26T09:02:27.994Z</time></trkpt><trkpt lat="48.58106192839998" lon="-4.412571236442277"><ele>68.0</ele><time>2026-04-26T09:02:28.994Z</time></trkpt><trkpt lat="48.58093565988735" lon="-4.412649665243959"><ele>68.0</ele><time>2026-04-26T09:02:29.994Z</time></trkpt><trkpt lat="48.580827977017094" lon="-4.412716071893734"><ele>68.0</ele><time>2026-04-26T09:02:30.994Z</time></trkpt><trkpt lat="48.580724418257134" lon="-4.412787841382084"><ele>68.0</ele><time>2026-04-26T09:02:31.994Z</time></trkpt><trkpt lat="48.58061127323385" lon="-4.412860128561342"><ele>68.0</ele><time>2026-04-26T09:02:32.994Z</time></trkpt><trkpt lat="48.58049494502147" lon="-4.4129410045225566"><ele>68.0</ele><time>2026-04-26T09:02:33.994Z</time></trkpt><trkpt lat="48.580379852783686" lon="-4.413010827754836"><ele>68.0</ele><time>2026-04-26T09:02:34.994Z</time></trkpt><trkpt lat="48.58027446180795" lon="-4.413094110992453"><ele>68.25</ele><time>2026-04-26T09:02:35.994Z</time></trkpt><trkpt lat="48.580173640151855" lon="-4.413152323577945"><ele>68.5</ele><time>2026-04-26T09:02:36.994Z</time></trkpt><trkpt lat="48.58007385435472" lon="-4.413201974788548"><ele>68.75</ele><time>2026-04-26T09:02:37.994Z</time></trkpt><trkpt lat="48.57998715385974" lon="-4.413264402180043"><ele>69.0</ele><time>2026-04-26T09:02:38.994Z</time></trkpt><trkpt lat="48.579643529268424" lon="-4.4131626458878905"><ele>69.0</ele><time>2026-04-26T09:02:49.994Z</time></trkpt><trkpt lat="48.57966055437213" lon="-4.413063685443917"><ele>69.0</ele><time>2026-04-26T09:02:50.994Z</time></trkpt><trkpt lat="48.57967371182239" lon="-4.412962497870133"><ele>69.0</ele><time>2026-04-26T09:02:51.994Z</time></trkpt><trkpt lat="48.57970940042358" lon="-4.412788608987244"><ele>69.0</ele><time>2026-04-26T09:02:53.994Z</time></trkpt><trkpt lat="48.579724628452446" lon="-4.412653763909074"><ele>69.0</ele><time>2026-04-26T09:02:55.994Z</time></trkpt><trkpt lat="48.579779249078264" lon="-4.412549038853066"><ele>69.0</ele><time>2026-04-26T09:02:57.994Z</time></trkpt><trkpt lat="48.57981418924286" lon="-4.412468555626083"><ele>69.0</ele><time>2026-04-26T09:02:58.994Z</time></trkpt><trkpt lat="48.579866274129195" lon="-4.41230637648221"><ele>69.0</ele><time>2026-04-26T09:03:00.994Z</time></trkpt><trkpt lat="48.57988449399462" lon="-4.412199039449835"><ele>69.0</ele><time>2026-04-26T09:03:01.994Z</time></trkpt><trkpt lat="48.5799231219344" lon="-4.4120888500001545"><ele>69.0</ele><time>2026-04-26T09:03:02.994Z</time></trkpt><trkpt lat="48.57995644948767" lon="-4.411975160119515"><ele>69.0</ele><time>2026-04-26T09:03:03.994Z</time></trkpt><trkpt lat="48.579990972480395" lon="-4.4118496986128815"><ele>69.0</ele><time>2026-04-26T09:03:04.994Z</time></trkpt><trkpt lat="48.580024214641014" lon="-4.411710358933114"><ele>69.33333333333333</ele><time>2026-04-26T09:03:05.994Z</time></trkpt><trkpt lat="48.58005050265588" lon="-4.411613043201271"><ele>69.66666666666667</ele><time>2026-04-26T09:03:06.994Z</time></trkpt><trkpt lat="48.58006752452411" lon="-4.411480004303407"><ele>70.0</ele><time>2026-04-26T09:03:08.993Z</time></trkpt><trkpt lat="48.58001119948298" lon="-4.41141768678876"><ele>70.33333333333334</ele><time>2026-04-26T09:03:11.993Z</time></trkpt><trkpt lat="48.579903175597366" lon="-4.411355329691511"><ele>70.66666666666667</ele><time>2026-04-26T09:03:13.993Z</time></trkpt><trkpt lat="48.57982811113693" lon="-4.411315232102262"><ele>71.0</ele><time>2026-04-26T09:03:14.993Z</time></trkpt><trkpt lat="48.579756489434416" lon="-4.411249865873753"><ele>71.16666666666667</ele><time>2026-04-26T09:03:15.993Z</time></trkpt><trkpt lat="48.579689194615305" lon="-4.4112105756381155"><ele>71.33333333333334</ele><time>2026-04-26T09:03:16.993Z</time></trkpt><trkpt lat="48.57962544550605" lon="-4.41116198967135"><ele>71.5</ele><time>2026-04-26T09:03:17.993Z</time></trkpt><trkpt lat="48.57955089248276" lon="-4.411100736465966"><ele>71.66666666666667</ele><time>2026-04-26T09:03:18.993Z</time></trkpt><trkpt lat="48.57948435782607" lon="-4.411057733714505"><ele>71.83333333333333</ele><time>2026-04-26T09:03:19.993Z</time></trkpt><trkpt lat="48.57941250684381" lon="-4.411009960313379"><ele>72.0</ele><time>2026-04-26T09:03:20.993Z</time></trkpt><trkpt lat="48.57933061499693" lon="-4.410970748433324"><ele>71.6</ele><time>2026-04-26T09:03:21.993Z</time></trkpt><trkpt lat="48.579252983625246" lon="-4.410908091571327"><ele>71.2</ele><time>2026-04-26T09:03:22.993Z</time></trkpt><trkpt lat="48.57916525478875" lon="-4.410846819850826"><ele>70.8</ele><time>2026-04-26T09:03:23.993Z</time></trkpt><trkpt lat="48.57908040746042" lon="-4.410793098037687"><ele>70.4</ele><time>2026-04-26T09:03:24.993Z</time></trkpt><trkpt lat="48.5789922405288" lon="-4.410743776412239"><ele>70.0</ele><time>2026-04-26T09:03:25.993Z</time></trkpt><trkpt lat="48.57891071320798" lon="-4.41070341521356"><ele>70.0</ele><time>2026-04-26T09:03:26.993Z</time></trkpt><trkpt lat="48.578847820048445" lon="-4.410660042271875"><ele>70.0</ele><time>2026-04-26T09:03:27.993Z</time></trkpt><trkpt lat="48.578777778129414" lon="-4.410615205688715"><ele>70.0</ele><time>2026-04-26T09:03:28.993Z</time></trkpt><trkpt lat="48.57868628325287" lon="-4.410530310626511"><ele>70.0</ele><time>2026-04-26T09:03:30.993Z</time></trkpt><trkpt lat="48.57866597767681" lon="-4.410438642538745"><ele>70.0</ele><time>2026-04-26T09:03:34.993Z</time></trkpt><trkpt lat="48.57880515472973" lon="-4.409859068528004"><ele>70.33333333333333</ele><time>2026-04-26T09:03:49.993Z</time></trkpt><trkpt lat="48.578834759113434" lon="-4.409768712706757"><ele>70.66666666666666</ele><time>2026-04-26T09:03:50.993Z</time></trkpt><trkpt lat="48.5788642911015" lon="-4.4096734783763125"><ele>71.0</ele><time>2026-04-26T09:03:51.993Z</time></trkpt><trkpt lat="48.578889520102805" lon="-4.409547771730877"><ele>71.33333333333333</ele><time>2026-04-26T09:03:52.993Z</time></trkpt><trkpt lat="48.57892937471433" lon="-4.409413235851763"><ele>71.66666666666667</ele><time>2026-04-26T09:03:53.993Z</time></trkpt><trkpt lat="48.57896448367998" lon="-4.409262356295336"><ele>72.0</ele><time>2026-04-26T09:03:54.993Z</time></trkpt><trkpt lat="48.57899964849106" lon="-4.409103430675293"><ele>72.0</ele><time>2026-04-26T09:03:55.993Z</time></trkpt><trkpt lat="48.57903626756015" lon="-4.4089530814855085"><ele>72.0</ele><time>2026-04-26T09:03:56.993Z</time></trkpt><trkpt lat="48.579076206979565" lon="-4.4087957782446265"><ele>72.0</ele><time>2026-04-26T09:03:57.993Z</time></trkpt><trkpt lat="48.579117287992325" lon="-4.4086236807939425"><ele>72.0</ele><time>2026-04-26T09:03:58.993Z</time></trkpt><trkpt lat="48.579159279476535" lon="-4.408444350918462"><ele>72.0</ele><time>2026-04-26T09:03:59.993Z</time></trkpt><trkpt lat="48.57920179151712" lon="-4.408271704830117"><ele>72.0</ele><time>2026-04-26T09:04:00.993Z</time></trkpt><trkpt lat="48.57923985318464" lon="-4.408090141944127"><ele>72.0</ele><time>2026-04-26T09:04:01.993Z</time></trkpt><trkpt lat="48.57928449235076" lon="-4.407912179369948"><ele>72.0</ele><time>2026-04-26T09:04:02.993Z</time></trkpt><trkpt lat="48.57933260978105" lon="-4.407745547222691"><ele>72.25</ele><time>2026-04-26T09:04:03.993Z</time></trkpt><trkpt lat="48.579377665840084" lon="-4.407586915499884"><ele>72.5</ele><time>2026-04-26T09:04:04.993Z</time></trkpt><trkpt lat="48.579420013433925" lon="-4.407403257834718"><ele>72.75</ele><time>2026-04-26T09:04:05.993Z</time></trkpt><trkpt lat="48.579467127110036" lon="-4.407218282815281"><ele>73.0</ele><time>2026-04-26T09:04:06.993Z</time></trkpt><trkpt lat="48.57952341927129" lon="-4.407035758037936"><ele>73.2</ele><time>2026-04-26T09:04:07.993Z</time></trkpt><trkpt lat="48.57955662020511" lon="-4.40686447232451"><ele>73.4</ele><time>2026-04-26T09:04:08.993Z</time></trkpt><trkpt lat="48.57959501576107" lon="-4.406718028977456"><ele>73.60000000000001</ele><time>2026-04-26T09:04:09.993Z</time></trkpt><trkpt lat="48.579630782483854" lon="-4.4065839691665385"><ele>73.8</ele><time>2026-04-26T09:04:10.993Z</time></trkpt><trkpt lat="48.57966834832235" lon="-4.40645243916129"><ele>74.0</ele><time>2026-04-26T09:04:11.993Z</time></trkpt><trkpt lat="48.579702321074876" lon="-4.406317745704605"><ele>74.0</ele><time>2026-04-26T09:04:12.993Z</time></trkpt><trkpt lat="48.57973079948322" lon="-4.406165404000056"><ele>74.0</ele><time>2026-04-26T09:04:13.993Z</time></trkpt><trkpt lat="48.579770276630356" lon="-4.406019346899929"><ele>74.0</ele><time>2026-04-26T09:04:14.993Z</time></trkpt><trkpt lat="48.57981043264208" lon="-4.405879410487523"><ele>74.0</ele><time>2026-04-26T09:04:15.993Z</time></trkpt><trkpt lat="48.57984848939276" lon="-4.405742377000694"><ele>74.0</ele><time>2026-04-26T09:04:16.993Z</time></trkpt><trkpt lat="48.57987818236069" lon="-4.405607396290353"><ele>74.0</ele><time>2026-04-26T09:04:17.993Z</time></trkpt><trkpt lat="48.579913094389546" lon="-4.405476520950143"><ele>74.0</ele><time>2026-04-26T09:04:18.993Z</time></trkpt><trkpt lat="48.579952028196516" lon="-4.405346079825453"><ele>74.0</ele><time>2026-04-26T09:04:19.993Z</time></trkpt><trkpt lat="48.579986186731134" lon="-4.405213892032905"><ele>74.0</ele><time>2026-04-26T09:04:20.993Z</time></trkpt><trkpt lat="48.58001295246792" lon="-4.4051005103620735"><ele>74.0</ele><time>2026-04-26T09:04:21.993Z</time></trkpt><trkpt lat="48.580037100008795" lon="-4.404985145108888"><ele>74.0</ele><time>2026-04-26T09:04:22.993Z</time></trkpt><trkpt lat="48.58006146867572" lon="-4.404895362647585"><ele>74.0</ele><time>2026-04-26T09:04:23.993Z</time></trkpt><trkpt lat="48.58011709412272" lon="-4.404746108755537"><ele>74.0</ele><time>2026-04-26T09:04:25.993Z</time></trkpt><trkpt lat="48.58016619285913" lon="-4.404643453994095"><ele>74.0</ele><time>2026-04-26T09:04:27.993Z</time></trkpt><trkpt lat="48.58028972314662" lon="-4.404450886510582"><ele>74.0</ele><time>2026-04-26T09:04:36.993Z</time></trkpt><trkpt lat="48.5803494003261" lon="-4.404352888190774"><ele>74.5</ele><time>2026-04-26T09:04:37.993Z</time></trkpt><trkpt lat="48.58041263270989" lon="-4.404247273166632"><ele>75.0</ele><time>2026-04-26T09:04:38.993Z</time></trkpt><trkpt lat="48.58080420653992" lon="-4.403574594647159"><ele>75.0</ele><time>2026-04-26T09:04:44.993Z</time></trkpt><trkpt lat="48.580880002431506" lon="-4.403454393672726"><ele>75.0</ele><time>2026-04-26T09:04:45.993Z</time></trkpt><trkpt lat="48.5809574494636" lon="-4.403325714774951"><ele>75.0</ele><time>2026-04-26T09:04:46.993Z</time></trkpt><trkpt lat="48.581036119668" lon="-4.403177363628311"><ele>75.0</ele><time>2026-04-26T09:04:47.993Z</time></trkpt><trkpt lat="48.58112055695738" lon="-4.403021306148842"><ele>75.0</ele><time>2026-04-26T09:04:48.993Z</time></trkpt><trkpt lat="48.58120481752947" lon="-4.402870765727902"><ele>75.0</ele><time>2026-04-26T09:04:49.993Z</time></trkpt><trkpt lat="48.581284676743444" lon="-4.402732090840969"><ele>75.0</ele><time>2026-04-26T09:04:50.993Z</time></trkpt><trkpt lat="48.58135413459256" lon="-4.402598872874037"><ele>75.0</ele><time>2026-04-26T09:04:51.993Z</time></trkpt><trkpt lat="48.58142068721193" lon="-4.402475504967191"><ele>75.0</ele><time>2026-04-26T09:04:52.993Z</time></trkpt><trkpt lat="48.58148703574654" lon="-4.402357528366305"><ele>75.0</ele><time>2026-04-26T09:04:53.993Z</time></trkpt><trkpt lat="48.58155227473818" lon="-4.402254937888515"><ele>75.0</ele><time>2026-04-26T09:04:54.992Z</time></trkpt><trkpt lat="48.581610653513586" lon="-4.402135955281518"><ele>75.0</ele><time>2026-04-26T09:04:55.992Z</time></trkpt><trkpt lat="48.58167069499885" lon="-4.402013300496461"><ele>75.0</ele><time>2026-04-26T09:04:56.992Z</time></trkpt><trkpt lat="48.58173168440281" lon="-4.401906934750562"><ele>75.0</ele><time>2026-04-26T09:04:57.992Z</time></trkpt><trkpt lat="48.581789083082235" lon="-4.401812335672294"><ele>75.0</ele><time>2026-04-26T09:04:58.992Z</time></trkpt><trkpt lat="48.58184655883668" lon="-4.4017417579706155"><ele>75.0</ele><time>2026-04-26T09:04:59.992Z</time></trkpt><trkpt lat="48.58196491454516" lon="-4.401746244543297"><ele>75.0</ele><time>2026-04-26T09:05:01.992Z</time></trkpt><trkpt lat="48.58203518123341" lon="-4.401795984317439"><ele>75.0</ele><time>2026-04-26T09:05:02.992Z</time></trkpt><trkpt lat="48.582106959201155" lon="-4.401871658602674"><ele>75.0</ele><time>2026-04-26T09:05:03.992Z</time></trkpt><trkpt lat="48.582180161394646" lon="-4.4019377743497445"><ele>75.0</ele><time>2026-04-26T09:05:04.992Z</time></trkpt><trkpt lat="48.5822473698632" lon="-4.401984667983323"><ele>75.0</ele><time>2026-04-26T09:05:05.992Z</time></trkpt><trkpt lat="48.5823097266358" lon="-4.402025541959078"><ele>75.0</ele><time>2026-04-26T09:05:06.992Z</time></trkpt><trkpt lat="48.582379908709605" lon="-4.402066263241346"><ele>75.0</ele><time>2026-04-26T09:05:07.992Z</time></trkpt><trkpt lat="48.58245561238567" lon="-4.402112729867693"><ele>75.0</ele><time>2026-04-26T09:05:08.992Z</time></trkpt><trkpt lat="48.58252772692301" lon="-4.402163724832876"><ele>75.0</ele><time>2026-04-26T09:05:09.992Z</time></trkpt><trkpt lat="48.58259875706589" lon="-4.402213324371059"><ele>75.0</ele><time>2026-04-26T09:05:10.992Z</time></trkpt><trkpt lat="48.58267647001833" lon="-4.402265719670972"><ele>75.0</ele><time>2026-04-26T09:05:11.992Z</time></trkpt><trkpt lat="48.58274771278016" lon="-4.402312016303483"><ele>75.0</ele><time>2026-04-26T09:05:12.992Z</time></trkpt><trkpt lat="48.58281360805532" lon="-4.402357897041136"><ele>75.0</ele><time>2026-04-26T09:05:13.992Z</time></trkpt><trkpt lat="48.58288119689778" lon="-4.402399918062988"><ele>75.0</ele><time>2026-04-26T09:05:14.992Z</time></trkpt><trkpt lat="48.58295669146119" lon="-4.4024470372361355"><ele>75.0</ele><time>2026-04-26T09:05:15.992Z</time></trkpt><trkpt lat="48.58302748064949" lon="-4.402485495775633"><ele>75.16666666666667</ele><time>2026-04-26T09:05:16.992Z</time></trkpt><trkpt lat="48.583143622329295" lon="-4.402553280681981"><ele>75.33333333333333</ele><time>2026-04-26T09:05:18.992Z</time></trkpt><trkpt lat="48.58320588970866" lon="-4.402588533625715"><ele>75.5</ele><time>2026-04-26T09:05:20.992Z</time></trkpt><trkpt lat="48.58322983890948" lon="-4.402679344667819"><ele>75.66666666666666</ele><time>2026-04-26T09:05:26.992Z</time></trkpt><trkpt lat="48.58320816727265" lon="-4.402794913904594"><ele>75.83333333333333</ele><time>2026-04-26T09:05:28.992Z</time></trkpt><trkpt lat="48.58318847243205" lon="-4.4029277698087865"><ele>76.0</ele><time>2026-04-26T09:05:30.992Z</time></trkpt><trkpt lat="48.583154091808076" lon="-4.403036988061156"><ele>76.0</ele><time>2026-04-26T09:05:31.992Z</time></trkpt><trkpt lat="48.583115689156486" lon="-4.403144251095494"><ele>76.0</ele><time>2026-04-26T09:05:32.992Z</time></trkpt><trkpt lat="48.58308995907467" lon="-4.403234539692909"><ele>76.0</ele><time>2026-04-26T09:05:33.992Z</time></trkpt><trkpt lat="48.58305127103619" lon="-4.403344279442638"><ele>76.0</ele><time>2026-04-26T09:05:35.992Z</time></trkpt><trkpt lat="48.58302100725454" lon="-4.403496504378512"><ele>76.0</ele><time>2026-04-26T09:05:37.992Z</time></trkpt><trkpt lat="48.58299396565338" lon="-4.403586025696919"><ele>76.0</ele><time>2026-04-26T09:05:38.992Z</time></trkpt><trkpt lat="48.5828306546434" lon="-4.404204095457246"><ele>76.0</ele><time>2026-04-26T09:05:49.992Z</time></trkpt><trkpt lat="48.58279228396207" lon="-4.404350689402714"><ele>76.0</ele><time>2026-04-26T09:05:51.992Z</time></trkpt><trkpt lat="48.582763207733464" lon="-4.404488008106466"><ele>76.0</ele><time>2026-04-26T09:05:53.992Z</time></trkpt><trkpt lat="48.58272211292027" lon="-4.404617409233317"><ele>76.0</ele><time>2026-04-26T09:05:55.992Z</time></trkpt><trkpt lat="48.582692295143495" lon="-4.404761840583622"><ele>76.0</ele><time>2026-04-26T09:05:57.992Z</time></trkpt><trkpt lat="48.58265919432516" lon="-4.404898547090186"><ele>75.83333333333333</ele><time>2026-04-26T09:05:59.992Z</time></trkpt><trkpt lat="48.58263171341003" lon="-4.405028715771587"><ele>75.66666666666666</ele><time>2026-04-26T09:06:01.992Z</time></trkpt><trkpt lat="48.582603405162054" lon="-4.405165587219239"><ele>75.5</ele><time>2026-04-26T09:06:03.992Z</time></trkpt><trkpt lat="48.58258455654671" lon="-4.405301418522654"><ele>75.33333333333333</ele><time>2026-04-26T09:06:05.992Z</time></trkpt><trkpt lat="48.58257044694522" lon="-4.405400003521261"><ele>75.16666666666667</ele><time>2026-04-26T09:06:06.992Z</time></trkpt><trkpt lat="48.58254743123315" lon="-4.4055041739633625"><ele>75.0</ele><time>2026-04-26T09:06:07.992Z</time></trkpt><trkpt lat="48.58252160117288" lon="-4.405626334406766"><ele>75.0</ele><time>2026-04-26T09:06:08.992Z</time></trkpt><trkpt lat="48.58249479078" lon="-4.405770265386385"><ele>75.0</ele><time>2026-04-26T09:06:09.992Z</time></trkpt><trkpt lat="48.582467440447516" lon="-4.4059193056363615"><ele>75.0</ele><time>2026-04-26T09:06:10.992Z</time></trkpt><trkpt lat="48.58244049561851" lon="-4.406092935407084"><ele>75.0</ele><time>2026-04-26T09:06:11.992Z</time></trkpt><trkpt lat="48.58240760610667" lon="-4.406264216743228"><ele>75.0</ele><time>2026-04-26T09:06:12.992Z</time></trkpt><trkpt lat="48.582375477324064" lon="-4.406432296638635"><ele>74.8</ele><time>2026-04-26T09:06:13.992Z</time></trkpt><trkpt lat="48.58234937176516" lon="-4.406581967678805"><ele>74.6</ele><time>2026-04-26T09:06:14.992Z</time></trkpt><trkpt lat="48.58233598046817" lon="-4.406726308393951"><ele>74.4</ele><time>2026-04-26T09:06:15.992Z</time></trkpt><trkpt lat="48.582327816971315" lon="-4.406873670502878"><ele>74.2</ele><time>2026-04-26T09:06:16.992Z</time></trkpt><trkpt lat="48.58232287823345" lon="-4.4070080371452445"><ele>74.0</ele><time>2026-04-26T09:06:17.992Z</time></trkpt><trkpt lat="48.58232955148101" lon="-4.407147315461093"><ele>73.8</ele><time>2026-04-26T09:06:18.992Z</time></trkpt><trkpt lat="48.58234460897596" lon="-4.407303733145152"><ele>73.60000000000001</ele><time>2026-04-26T09:06:19.992Z</time></trkpt><trkpt lat="48.582355122243875" lon="-4.407461716278569"><ele>73.4</ele><time>2026-04-26T09:06:20.992Z</time></trkpt><trkpt lat="48.58236288536824" lon="-4.407606863759554"><ele>73.2</ele><time>2026-04-26T09:06:21.992Z</time></trkpt><trkpt lat="48.582355830412354" lon="-4.407775964949233"><ele>73.0</ele><time>2026-04-26T09:06:22.992Z</time></trkpt><trkpt lat="48.582339494008025" lon="-4.407943178209465"><ele>72.5</ele><time>2026-04-26T09:06:23.992Z</time></trkpt><trkpt lat="48.58232121567977" lon="-4.40812307673767"><ele>72.0</ele><time>2026-04-26T09:06:24.992Z</time></trkpt><trkpt lat="48.58228071779708" lon="-4.40832172048226"><ele>71.5</ele><time>2026-04-26T09:06:25.992Z</time></trkpt><trkpt lat="48.58225629807625" lon="-4.4085435408219915"><ele>71.0</ele><time>2026-04-26T09:06:26.992Z</time></trkpt><trkpt lat="48.58222747423331" lon="-4.408758864035942"><ele>71.0</ele><time>2026-04-26T09:06:27.992Z</time></trkpt><trkpt lat="48.582198119181285" lon="-4.408978720195342"><ele>71.0</ele><time>2026-04-26T09:06:28.992Z</time></trkpt><trkpt lat="48.58217517258276" lon="-4.409182405465221"><ele>71.0</ele><time>2026-04-26T09:06:29.992Z</time></trkpt><trkpt lat="48.5821503598119" lon="-4.409361964120896"><ele>71.0</ele><time>2026-04-26T09:06:30.992Z</time></trkpt><trkpt lat="48.582124206916404" lon="-4.409520417189469"><ele>71.0</ele><time>2026-04-26T09:06:31.992Z</time></trkpt><trkpt lat="48.582083835508016" lon="-4.409670196184643"><ele>71.0</ele><time>2026-04-26T09:06:32.992Z</time></trkpt><trkpt lat="48.58204186796219" lon="-4.409832426398338"><ele>71.0</ele><time>2026-04-26T09:06:33.992Z</time></trkpt><trkpt lat="48.58199888278254" lon="-4.409986198024849"><ele>71.0</ele><time>2026-04-26T09:06:34.992Z</time></trkpt><trkpt lat="48.581960679554875" lon="-4.41012329537704"><ele>71.0</ele><time>2026-04-26T09:06:35.992Z</time></trkpt><trkpt lat="48.581931718997346" lon="-4.410233953557141"><ele>71.0</ele><time>2026-04-26T09:06:36.992Z</time></trkpt><trkpt lat="48.5818986690656" lon="-4.410368306614788"><ele>71.0</ele><time>2026-04-26T09:06:38.992Z</time></trkpt><trkpt lat="48.58157768681679" lon="-4.4111322073506605"><ele>70.66666666666667</ele><time>2026-04-26T09:07:49.991Z</time></trkpt><trkpt lat="48.581536512093464" lon="-4.411206329055364"><ele>70.33333333333334</ele><time>2026-04-26T09:07:50.991Z</time></trkpt><trkpt lat="48.58150535317009" lon="-4.411315215572168"><ele>70.0</ele><time>2026-04-26T09:07:51.991Z</time></trkpt><trkpt lat="48.58147380688415" lon="-4.411426496943124"><ele>69.66666666666667</ele><time>2026-04-26T09:07:52.991Z</time></trkpt><trkpt lat="48.581451726302646" lon="-4.411545125207221"><ele>69.33333333333333</ele><time>2026-04-26T09:07:53.991Z</time></trkpt><trkpt lat="48.581425664940944" lon="-4.411657623737403"><ele>69.0</ele><time>2026-04-26T09:07:54.991Z</time></trkpt><trkpt lat="48.5813996395329" lon="-4.4117591113701415"><ele>68.85714285714286</ele><time>2026-04-26T09:07:55.991Z</time></trkpt><trkpt lat="48.581373902598855" lon="-4.411853231028812"><ele>68.71428571428572</ele><time>2026-04-26T09:07:56.991Z</time></trkpt><trkpt lat="48.581343862295455" lon="-4.411952486576081"><ele>68.57142857142857</ele><time>2026-04-26T09:07:57.991Z</time></trkpt><trkpt lat="48.581318328147624" lon="-4.412051347534722"><ele>68.42857142857143</ele><time>2026-04-26T09:07:58.991Z</time></trkpt><trkpt lat="48.581306018436536" lon="-4.412154362260924"><ele>68.28571428571428</ele><time>2026-04-26T09:07:59.991Z</time></trkpt><trkpt lat="48.58123345856247" lon="-4.412204071646748"><ele>68.14285714285714</ele><time>2026-04-26T09:08:00.991Z</time></trkpt><trkpt lat="48.581204435156565" lon="-4.41228893390796"><ele>68.0</ele><time>2026-04-26T09:08:01.991Z</time></trkpt><trkpt lat="48.58117241854433" lon="-4.41238228158254"><ele>68.0</ele><time>2026-04-26T09:08:02.991Z</time></trkpt><trkpt lat="48.581128213746844" lon="-4.41253812149391"><ele>68.0</ele><time>2026-04-26T09:08:04.991Z</time></trkpt><trkpt lat="48.58105504630921" lon="-4.412621553064882"><ele>68.0</ele><time>2026-04-26T09:08:07.991Z</time></trkpt><trkpt lat="48.58097435733761" lon="-4.412635821625684"><ele>68.0</ele><time>2026-04-26T09:08:08.991Z</time></trkpt><trkpt lat="48.58090074384149" lon="-4.412687237501915"><ele>68.0</ele><time>2026-04-26T09:08:09.991Z</time></trkpt><trkpt lat="48.58082221290878" lon="-4.412735365597288"><ele>68.0</ele><time>2026-04-26T09:08:10.991Z</time></trkpt><trkpt lat="48.580757927738404" lon="-4.4127937270847415"><ele>68.0</ele><time>2026-04-26T09:08:11.991Z</time></trkpt><trkpt lat="48.58068349749418" lon="-4.412840765642461"><ele>68.0</ele><time>2026-04-26T09:08:12.991Z</time></trkpt><trkpt lat="48.5806090452513" lon="-4.412875195868065"><ele>68.0</ele><time>2026-04-26T09:08:13.991Z</time></trkpt><trkpt lat="48.58053545210581" lon="-4.412930014215823"><ele>68.0</ele><time>2026-04-26T09:08:14.991Z</time></trkpt><trkpt lat="48.580457676209384" lon="-4.412982785880914"><ele>68.0</ele><time>2026-04-26T09:08:15.991Z</time></trkpt><trkpt lat="48.580375406533975" lon="-4.413013616816594"><ele>68.16666666666667</ele><time>2026-04-26T09:08:16.991Z</time></trkpt><trkpt lat="48.580300334241684" lon="-4.4130726849527635"><ele>68.33333333333334</ele><time>2026-04-26T09:08:17.991Z</time></trkpt><trkpt lat="48.580225600616885" lon="-4.413127936572245"><ele>68.5</ele><time>2026-04-26T09:08:18.991Z</time></trkpt><trkpt lat="48.58015879417671" lon="-4.4131657842555745"><ele>68.66666666666667</ele><time>2026-04-26T09:08:19.991Z</time></trkpt><trkpt lat="48.58009219034426" lon="-4.413214022304448"><ele>68.83333333333333</ele><time>2026-04-26T09:08:20.991Z</time></trkpt><trkpt lat="48.58002129884316" lon="-4.4132719392952"><ele>69.0</ele><time>2026-04-26T09:08:21.991Z</time></trkpt><trkpt lat="48.57993490117434" lon="-4.413305670109461"><ele>69.0</ele><time>2026-04-26T09:08:22.991Z</time></trkpt><trkpt lat="48.579856538012784" lon="-4.4133305960145295"><ele>69.0</ele><time>2026-04-26T09:08:23.991Z</time></trkpt><trkpt lat="48.579794537422615" lon="-4.4133611313934376"><ele>69.0</ele><time>2026-04-26T09:08:24.99Z</time></trkpt><trkpt lat="48.57969251987398" lon="-4.413416767511196"><ele>69.0</ele><time>2026-04-26T09:08:26.99Z</time></trkpt><trkpt lat="48.57962601297912" lon="-4.413493590126433"><ele>69.0</ele><time>2026-04-26T09:08:28.99Z</time></trkpt><trkpt lat="48.579637927816464" lon="-4.413659482882809"><ele>69.0</ele><time>2026-04-26T09:08:30.99Z</time></trkpt><trkpt lat="48.57966402435379" lon="-4.413862029981641"><ele>68.66666666666667</ele><time>2026-04-26T09:08:32.99Z</time></trkpt><trkpt lat="48.57967937371314" lon="-4.413995644958026"><ele>68.33333333333333</ele><time>2026-04-26T09:08:33.99Z</time></trkpt><trkpt lat="48.57968883044645" lon="-4.414125655469179"><ele>68.0</ele><time>2026-04-26T09:08:34.99Z</time></trkpt><trkpt lat="48.57967589267603" lon="-4.4142522626291685"><ele>67.66666666666666</ele><time>2026-04-26T09:08:35.99Z</time></trkpt><trkpt lat="48.579672688203665" lon="-4.414390098180617"><ele>67.33333333333333</ele><time>2026-04-26T09:08:36.99Z</time></trkpt><trkpt lat="48.57966083793067" lon="-4.414521888214941"><ele>67.0</ele><time>2026-04-26T09:08:37.99Z</time></trkpt><trkpt lat="48.579645348111555" lon="-4.414650748969941"><ele>70.0</ele><time>2026-04-26T09:08:38.99Z</time></trkpt><trkpt lat="48.57926983040362" lon="-4.416247275881568"><ele>69.8</ele><time>2026-04-26T09:08:49.99Z</time></trkpt><trkpt lat="48.57923880948393" lon="-4.4164074330699945"><ele>69.6</ele><time>2026-04-26T09:08:50.99Z</time></trkpt><trkpt lat="48.57921147023908" lon="-4.416565627651789"><ele>69.4</ele><time>2026-04-26T09:08:51.99Z</time></trkpt><trkpt lat="48.57917345992724" lon="-4.416715993604276"><ele>69.2</ele><time>2026-04-26T09:08:52.99Z</time></trkpt><trkpt lat="48.579143818866086" lon="-4.416882357379939"><ele>69.0</ele><time>2026-04-26T09:08:53.99Z</time></trkpt><trkpt lat="48.57910784603605" lon="-4.417064613560857"><ele>68.75</ele><time>2026-04-26T09:08:54.99Z</time></trkpt><trkpt lat="48.57906154108572" lon="-4.417252189455018"><ele>68.5</ele><time>2026-04-26T09:08:55.99Z</time></trkpt><trkpt lat="48.57901918482022" lon="-4.417453398049713"><ele>68.25</ele><time>2026-04-26T09:08:56.99Z</time></trkpt><trkpt lat="48.57897192416175" lon="-4.417659605214234"><ele>68.0</ele><time>2026-04-26T09:08:57.99Z</time></trkpt><trkpt lat="48.57892941902907" lon="-4.417879828532351"><ele>68.0</ele><time>2026-04-26T09:08:58.99Z</time></trkpt><trkpt lat="48.57889606351012" lon="-4.418109668360926"><ele>68.0</ele><time>2026-04-26T09:08:59.99Z</time></trkpt><trkpt lat="48.5788766645642" lon="-4.418307691635943"><ele>68.0</ele><time>2026-04-26T09:09:00.99Z</time></trkpt><trkpt lat="48.578859696542516" lon="-4.418487879965446"><ele>68.0</ele><time>2026-04-26T09:09:01.99Z</time></trkpt><trkpt lat="48.57884448567832" lon="-4.41865977398245"><ele>68.0</ele><time>2026-04-26T09:09:02.99Z</time></trkpt><trkpt lat="48.57882616079601" lon="-4.418820321632521"><ele>68.0</ele><time>2026-04-26T09:09:03.99Z</time></trkpt><trkpt lat="48.578806020490994" lon="-4.418975668449366"><ele>68.0</ele><time>2026-04-26T09:09:04.99Z</time></trkpt><trkpt lat="48.57878313962927" lon="-4.419120358376997"><ele>68.0</ele><time>2026-04-26T09:09:05.99Z</time></trkpt><trkpt lat="48.5787658582438" lon="-4.4192667633349085"><ele>68.0</ele><time>2026-04-26T09:09:06.99Z</time></trkpt><trkpt lat="48.57874470168818" lon="-4.419422616391366"><ele>68.0</ele><time>2026-04-26T09:09:07.99Z</time></trkpt><trkpt lat="48.57872369795685" lon="-4.419580542291203"><ele>68.0</ele><time>2026-04-26T09:09:08.99Z</time></trkpt><trkpt lat="48.5787107834" lon="-4.419734079508611"><ele>68.0</ele><time>2026-04-26T09:09:09.99Z</time></trkpt><trkpt lat="48.57870152278628" lon="-4.419894134152726"><ele>68.0</ele><time>2026-04-26T09:09:10.99Z</time></trkpt><trkpt lat="48.578696465975305" lon="-4.420053286468396"><ele>68.0</ele><time>2026-04-26T09:09:11.99Z</time></trkpt><trkpt lat="48.57870115709974" lon="-4.420203027340498"><ele>68.0</ele><time>2026-04-26T09:09:12.99Z</time></trkpt><trkpt lat="48.578701562765545" lon="-4.420350357769096"><ele>68.0</ele><time>2026-04-26T09:09:13.99Z</time></trkpt><trkpt lat="48.57871228058877" lon="-4.420513444624409"><ele>68.0</ele><time>2026-04-26T09:09:14.99Z</time></trkpt><trkpt lat="48.57872234545824" lon="-4.420674785661153"><ele>68.0</ele><time>2026-04-26T09:09:15.99Z</time></trkpt><trkpt lat="48.578738684433645" lon="-4.420843184042903"><ele>68.0</ele><time>2026-04-26T09:09:16.99Z</time></trkpt><trkpt lat="48.57875687195104" lon="-4.421009540223971"><ele>68.25</ele><time>2026-04-26T09:09:17.99Z</time></trkpt><trkpt lat="48.57877773610524" lon="-4.421171847317708"><ele>68.5</ele><time>2026-04-26T09:09:18.99Z</time></trkpt><trkpt lat="48.57879225199736" lon="-4.421344145557808"><ele>68.75</ele><time>2026-04-26T09:09:19.99Z</time></trkpt><trkpt lat="48.57881374365725" lon="-4.421521826373114"><ele>69.0</ele><time>2026-04-26T09:09:20.99Z</time></trkpt><trkpt lat="48.57882336782387" lon="-4.421690212392615"><ele>68.60000000000001</ele><time>2026-04-26T09:09:21.99Z</time></trkpt><trkpt lat="48.57882516426651" lon="-4.421847862118274"><ele>68.2</ele><time>2026-04-26T09:09:22.99Z</time></trkpt><trkpt lat="48.5788326436502" lon="-4.422013099803042"><ele>67.80000000000001</ele><time>2026-04-26T09:09:23.99Z</time></trkpt><trkpt lat="48.57884150429437" lon="-4.422176465526041"><ele>67.4</ele><time>2026-04-26T09:09:24.99Z</time></trkpt><trkpt lat="48.5788509194747" lon="-4.422332365035668"><ele>67.0</ele><time>2026-04-26T09:09:25.99Z</time></trkpt><trkpt lat="48.5788610236521" lon="-4.422482904489962"><ele>66.83333333333333</ele><time>2026-04-26T09:09:26.99Z</time></trkpt><trkpt lat="48.57886300209747" lon="-4.422603838955409"><ele>66.66666666666666</ele><time>2026-04-26T09:09:27.99Z</time></trkpt><trkpt lat="48.57886005951728" lon="-4.422719533312546"><ele>66.5</ele><time>2026-04-26T09:09:28.99Z</time></trkpt><trkpt lat="48.57886528186357" lon="-4.42283760606572"><ele>66.33333333333333</ele><time>2026-04-26T09:09:29.99Z</time></trkpt><trkpt lat="48.57887193316453" lon="-4.422954537571784"><ele>66.16666666666667</ele><time>2026-04-26T09:09:30.99Z</time></trkpt><trkpt lat="48.57887536844849" lon="-4.423074520471497"><ele>66.0</ele><time>2026-04-26T09:09:31.99Z</time></trkpt><trkpt lat="48.57889266196742" lon="-4.423205816464697"><ele>66.0</ele><time>2026-04-26T09:09:32.99Z</time></trkpt><trkpt lat="48.57892545399375" lon="-4.423331402562749"><ele>66.0</ele><time>2026-04-26T09:09:33.99Z</time></trkpt><trkpt lat="48.57895292460608" lon="-4.42344405049251"><ele>66.0</ele><time>2026-04-26T09:09:34.99Z</time></trkpt><trkpt lat="48.578976714469675" lon="-4.423552958075162"><ele>66.0</ele><time>2026-04-26T09:09:35.99Z</time></trkpt><trkpt lat="48.57900244816079" lon="-4.423690833307191"><ele>66.0</ele><time>2026-04-26T09:09:36.99Z</time></trkpt><trkpt lat="48.579017864457285" lon="-4.423825152167969"><ele>66.0</ele><time>2026-04-26T09:09:37.99Z</time></trkpt><trkpt lat="48.57904536553068" lon="-4.423982395093217"><ele>62.0</ele><time>2026-04-26T09:09:38.99Z</time></trkpt><trkpt lat="48.579271628013984" lon="-4.425665523278812"><ele>62.00000000000001</ele><time>2026-04-26T09:09:49.99Z</time></trkpt><trkpt lat="48.57929242098897" lon="-4.42578765353097"><ele>62.0</ele><time>2026-04-26T09:09:50.99Z</time></trkpt><trkpt lat="48.57930507549515" lon="-4.425901567230963"><ele>62.0</ele><time>2026-04-26T09:09:51.99Z</time></trkpt><trkpt lat="48.5793221092651" lon="-4.426019996021867"><ele>62.0</ele><time>2026-04-26T09:09:52.99Z</time></trkpt><trkpt lat="48.57933412741361" lon="-4.426145661639495"><ele>62.00000000000001</ele><time>2026-04-26T09:09:53.99Z</time></trkpt><trkpt lat="48.579353016309625" lon="-4.426289057092717"><ele>62.0</ele><time>2026-04-26T09:09:54.99Z</time></trkpt><trkpt lat="48.579364271875015" lon="-4.4264320495680245"><ele>61.833333333333336</ele><time>2026-04-26T09:09:55.99Z</time></trkpt><trkpt lat="48.57937607778054" lon="-4.426570080523747"><ele>61.66666666666667</ele><time>2026-04-26T09:09:56.99Z</time></trkpt><trkpt lat="48.57940448942143" lon="-4.426720426153786"><ele>61.5</ele><time>2026-04-26T09:09:57.99Z</time></trkpt><trkpt lat="48.579422189578935" lon="-4.426859778288532"><ele>61.33333333333333</ele><time>2026-04-26T09:09:58.99Z</time></trkpt><trkpt lat="48.579437669436196" lon="-4.4269887109756"><ele>61.166666666666664</ele><time>2026-04-26T09:09:59.99Z</time></trkpt><trkpt lat="48.579463727948635" lon="-4.427090689665355"><ele>61.0</ele><time>2026-04-26T09:10:00.99Z</time></trkpt><trkpt lat="48.57951101085404" lon="-4.427245688676139"><ele>60.8</ele><time>2026-04-26T09:10:02.99Z</time></trkpt><trkpt lat="48.57960464432974" lon="-4.427370231483465"><ele>60.599999999999994</ele><time>2026-04-26T09:10:04.99Z</time></trkpt><trkpt lat="48.57971763438993" lon="-4.427386649504045"><ele>60.4</ele><time>2026-04-26T09:10:06.99Z</time></trkpt><trkpt lat="48.57978856875258" lon="-4.427361042494354"><ele>60.2</ele><time>2026-04-26T09:10:07.99Z</time></trkpt><trkpt lat="48.57988390805618" lon="-4.427323862269646"><ele>60.0</ele><time>2026-04-26T09:10:08.99Z</time></trkpt><trkpt lat="48.57996646053498" lon="-4.427319213629651"><ele>60.0</ele><time>2026-04-26T09:10:09.99Z</time></trkpt><trkpt lat="48.58010026777496" lon="-4.427297063816416"><ele>60.0</ele><time>2026-04-26T09:10:11.989Z</time></trkpt><trkpt lat="48.58016582556355" lon="-4.427282226877298"><ele>60.0</ele><time>2026-04-26T09:10:12.989Z</time></trkpt><trkpt lat="48.580240473633296" lon="-4.427277597318073"><ele>60.0</ele><time>2026-04-26T09:10:13.989Z</time></trkpt><trkpt lat="48.58032743197679" lon="-4.427257694951785"><ele>60.0</ele><time>2026-04-26T09:10:14.989Z</time></trkpt><trkpt lat="48.58040790682291" lon="-4.427236342539309"><ele>60.0</ele><time>2026-04-26T09:10:15.989Z</time></trkpt><trkpt lat="48.58048558968263" lon="-4.427231725080096"><ele>59.833333333333336</ele><time>2026-04-26T09:10:16.989Z</time></trkpt><trkpt lat="48.58058674926751" lon="-4.427212753398119"><ele>59.66666666666667</ele><time>2026-04-26T09:10:17.989Z</time></trkpt><trkpt lat="48.580671543804975" lon="-4.427209094579601"><ele>59.5</ele><time>2026-04-26T09:10:18.989Z</time></trkpt><trkpt lat="48.58074968140921" lon="-4.427198742799012"><ele>59.333333333333336</ele><time>2026-04-26T09:10:19.989Z</time></trkpt><trkpt lat="48.58081815774743" lon="-4.427194736096886"><ele>59.16666666666667</ele><time>2026-04-26T09:10:20.989Z</time></trkpt><trkpt lat="48.580901876818984" lon="-4.427179081694451"><ele>59.0</ele><time>2026-04-26T09:10:21.989Z</time></trkpt><trkpt lat="48.58098506867444" lon="-4.427174214338383"><ele>59.00000000000001</ele><time>2026-04-26T09:10:22.989Z</time></trkpt><trkpt lat="48.58106470564151" lon="-4.4271930565810065"><ele>59.0</ele><time>2026-04-26T09:10:23.989Z</time></trkpt><trkpt lat="48.58113970526783" lon="-4.427197250357308"><ele>59.0</ele><time>2026-04-26T09:10:24.989Z</time></trkpt><trkpt lat="48.58119571292939" lon="-4.42725185427369"><ele>59.0</ele><time>2026-04-26T09:10:26.989Z</time></trkpt><trkpt lat="48.58121824513052" lon="-4.427397798028192"><ele>59.00000000000001</ele><time>2026-04-26T09:10:28.989Z</time></trkpt><trkpt lat="48.581259721308385" lon="-4.427520455039407"><ele>59.0</ele><time>2026-04-26T09:10:30.989Z</time></trkpt><trkpt lat="48.581347859739765" lon="-4.427603252309383"><ele>58.833333333333336</ele><time>2026-04-26T09:10:32.989Z</time></trkpt><trkpt lat="48.581425880788764" lon="-4.427625464559232"><ele>58.66666666666667</ele><time>2026-04-26T09:10:33.989Z</time></trkpt><trkpt lat="48.58153986885722" lon="-4.4276903111680825"><ele>58.5</ele><time>2026-04-26T09:10:35.989Z</time></trkpt><trkpt lat="48.58159895931735" lon="-4.427751499981296"><ele>58.33333333333333</ele><time>2026-04-26T09:10:36.989Z</time></trkpt><trkpt lat="48.58163447725957" lon="-4.427830235015115"><ele>58.166666666666664</ele><time>2026-04-26T09:10:37.989Z</time></trkpt><trkpt lat="48.58166668491559" lon="-4.427922365243441"><ele>58.0</ele><time>2026-04-26T09:10:38.989Z</time></trkpt><trkpt lat="48.581799478954004" lon="-4.428966525175834"><ele>57.85714285714286</ele><time>2026-04-26T09:10:49.989Z</time></trkpt><trkpt lat="48.5818395048053" lon="-4.429047095894539"><ele>57.714285714285715</ele><time>2026-04-26T09:10:50.989Z</time></trkpt><trkpt lat="48.58187671690982" lon="-4.429158493805331"><ele>57.57142857142857</ele><time>2026-04-26T09:10:52.989Z</time></trkpt><trkpt lat="48.58191156646361" lon="-4.429253310346371"><ele>57.42857142857143</ele><time>2026-04-26T09:10:53.989Z</time></trkpt><trkpt lat="48.58195299294016" lon="-4.429336101826302"><ele>57.28571428571428</ele><time>2026-04-26T09:10:54.989Z</time></trkpt><trkpt lat="48.58199656840684" lon="-4.429408943023666"><ele>57.14285714285714</ele><time>2026-04-26T09:10:55.989Z</time></trkpt><trkpt lat="48.58206794032353" lon="-4.429502715256619"><ele>57.0</ele><time>2026-04-26T09:10:56.989Z</time></trkpt><trkpt lat="48.58214406926733" lon="-4.429575490142454"><ele>57.0</ele><time>2026-04-26T09:10:57.989Z</time></trkpt><trkpt lat="48.582209385476645" lon="-4.429626089703747"><ele>57.0</ele><time>2026-04-26T09:10:58.989Z</time></trkpt><trkpt lat="48.58226953548319" lon="-4.429685122374114"><ele>57.0</ele><time>2026-04-26T09:10:59.989Z</time></trkpt><trkpt lat="48.58233943638432" lon="-4.429782282754948"><ele>57.0</ele><time>2026-04-26T09:11:01.989Z</time></trkpt><trkpt lat="48.582390065382796" lon="-4.429840168285051"><ele>57.0</ele><time>2026-04-26T09:11:03.989Z</time></trkpt><trkpt lat="48.58233578312987" lon="-4.429964658932336"><ele>57.0</ele><time>2026-04-26T09:11:36.989Z</time></trkpt><trkpt lat="48.582219570750034" lon="-4.430014123870384"><ele>57.0</ele><time>2026-04-26T09:11:38.989Z</time></trkpt><trkpt lat="48.581352439999314" lon="-4.430193320682982"><ele>57.0</ele><time>2026-04-26T09:11:49.989Z</time></trkpt><trkpt lat="48.581257626278315" lon="-4.4302029853293945"><ele>57.0</ele><time>2026-04-26T09:11:50.989Z</time></trkpt><trkpt lat="48.58115990440672" lon="-4.4302374647991085"><ele>57.0</ele><time>2026-04-26T09:11:51.989Z</time></trkpt><trkpt lat="48.58107610246773" lon="-4.430268213496246"><ele>57.0</ele><time>2026-04-26T09:11:52.989Z</time></trkpt><trkpt lat="48.58098606023284" lon="-4.430299261176838"><ele>57.0</ele><time>2026-04-26T09:11:53.989Z</time></trkpt><trkpt lat="48.58090856947231" lon="-4.430335970670095"><ele>56.8</ele><time>2026-04-26T09:11:54.989Z</time></trkpt><trkpt lat="48.58080317231342" lon="-4.430358885494895"><ele>56.6</ele><time>2026-04-26T09:11:56.988Z</time></trkpt><trkpt lat="48.580688588955766" lon="-4.430368932698557"><ele>56.39999999999999</ele><time>2026-04-26T09:11:58.988Z</time></trkpt><trkpt lat="48.58061917236651" lon="-4.430360148799431"><ele>56.199999999999996</ele><time>2026-04-26T09:11:59.988Z</time></trkpt><trkpt lat="48.5805142260968" lon="-4.430381243907962"><ele>56.0</ele><time>2026-04-26T09:12:01.988Z</time></trkpt><trkpt lat="48.58045010856787" lon="-4.430406929327037"><ele>56.00000000000001</ele><time>2026-04-26T09:12:02.988Z</time></trkpt><trkpt lat="48.580363416962314" lon="-4.430393085913338"><ele>56.0</ele><time>2026-04-26T09:12:03.988Z</time></trkpt><trkpt lat="48.58028631889735" lon="-4.430412264131889"><ele>56.0</ele><time>2026-04-26T09:12:04.988Z</time></trkpt><trkpt lat="48.58020217252476" lon="-4.430417872054093"><ele>56.0</ele><time>2026-04-26T09:12:05.988Z</time></trkpt><trkpt lat="48.5801209276083" lon="-4.430425723674691"><ele>56.00000000000001</ele><time>2026-04-26T09:12:06.988Z</time></trkpt><trkpt lat="48.580043470866244" lon="-4.430441996942872"><ele>56.0</ele><time>2026-04-26T09:12:07.988Z</time></trkpt><trkpt lat="48.57996995596055" lon="-4.430464087089343"><ele>56.0</ele><time>2026-04-26T09:12:08.988Z</time></trkpt><trkpt lat="48.57988728472344" lon="-4.430488281232667"><ele>56.0</ele><time>2026-04-26T09:12:09.988Z</time></trkpt><trkpt lat="48.57981217074879" lon="-4.430522941468239"><ele>56.0</ele><time>2026-04-26T09:12:10.988Z</time></trkpt><trkpt lat="48.579739965890994" lon="-4.430559101869079"><ele>56.0</ele><time>2026-04-26T09:12:11.988Z</time></trkpt><trkpt lat="48.579680473435964" lon="-4.430603401373526"><ele>56.0</ele><time>2026-04-26T09:12:12.988Z</time></trkpt><trkpt lat="48.5796143756089" lon="-4.430615924005911"><ele>56.0</ele><time>2026-04-26T09:12:13.988Z</time></trkpt><trkpt lat="48.579544052310425" lon="-4.430629663215666"><ele>56.0</ele><time>2026-04-26T09:12:14.988Z</time></trkpt><trkpt lat="48.57946465013574" lon="-4.430632322510017"><ele>56.00000000000001</ele><time>2026-04-26T09:12:15.988Z</time></trkpt><trkpt lat="48.57936840250648" lon="-4.430676279681707"><ele>56.0</ele><time>2026-04-26T09:12:16.988Z</time></trkpt><trkpt lat="48.57927287606198" lon="-4.43070947583098"><ele>56.0</ele><time>2026-04-26T09:12:17.988Z</time></trkpt><trkpt lat="48.57918949466223" lon="-4.430747143375732"><ele>56.0</ele><time>2026-04-26T09:12:19.002Z</time></trkpt><trkpt lat="48.57911940541713" lon="-4.430815671659578"><ele>56.00000000000001</ele><time>2026-04-26T09:12:20.002Z</time></trkpt><trkpt lat="48.5790408526892" lon="-4.430836269985763"><ele>56.0</ele><time>2026-04-26T09:12:21.002Z</time></trkpt><trkpt lat="48.578953184693084" lon="-4.430880420084877"><ele>56.00000000000001</ele><time>2026-04-26T09:12:22.002Z</time></trkpt><trkpt lat="48.578851611522225" lon="-4.430923815487455"><ele>56.0</ele><time>2026-04-26T09:12:23.002Z</time></trkpt><trkpt lat="48.57876824296089" lon="-4.430952134043246"><ele>56.0</ele><time>2026-04-26T09:12:24.002Z</time></trkpt><trkpt lat="48.578682934260534" lon="-4.430961344224831"><ele>56.0</ele><time>2026-04-26T09:12:25.002Z</time></trkpt><trkpt lat="48.578611810616344" lon="-4.430984722682174"><ele>56.00000000000001</ele><time>2026-04-26T09:12:26.002Z</time></trkpt><trkpt lat="48.57853787181643" lon="-4.431011168795989"><ele>56.0</ele><time>2026-04-26T09:12:27.002Z</time></trkpt><trkpt lat="48.578469294287224" lon="-4.431005563660854"><ele>55.833333333333336</ele><time>2026-04-26T09:12:28.002Z</time></trkpt><trkpt lat="48.57838922301691" lon="-4.43097401725729"><ele>55.66666666666667</ele><time>2026-04-26T09:12:29.002Z</time></trkpt><trkpt lat="48.578328232781125" lon="-4.431011064575119"><ele>55.5</ele><time>2026-04-26T09:12:30.002Z</time></trkpt><trkpt lat="48.57825286440027" lon="-4.431045282684328"><ele>55.33333333333333</ele><time>2026-04-26T09:12:31.002Z</time></trkpt><trkpt lat="48.578170306701274" lon="-4.431090105507723"><ele>55.166666666666664</ele><time>2026-04-26T09:12:32.002Z</time></trkpt><trkpt lat="48.57809508097858" lon="-4.431109092138962"><ele>55.0</ele><time>2026-04-26T09:12:33.002Z</time></trkpt><trkpt lat="48.578008783325004" lon="-4.431132287626184"><ele>55.0</ele><time>2026-04-26T09:12:34.002Z</time></trkpt><trkpt lat="48.57793005923188" lon="-4.431178282350824"><ele>55.0</ele><time>2026-04-26T09:12:35.002Z</time></trkpt><trkpt lat="48.5778623629369" lon="-4.431269219342544"><ele>55.0</ele><time>2026-04-26T09:12:36.002Z</time></trkpt><trkpt lat="48.577815066992045" lon="-4.431352537935634"><ele>55.0</ele><time>2026-04-26T09:12:37.002Z</time></trkpt><trkpt lat="48.577768262557" lon="-4.431421539325992"><ele>55.0</ele><time>2026-04-26T09:12:38.002Z</time></trkpt><trkpt lat="48.57748317599443" lon="-4.433075504611726"><ele>54.6</ele><time>2026-04-26T09:12:50.001Z</time></trkpt><trkpt lat="48.5774609391076" lon="-4.433211925663762"><ele>54.2</ele><time>2026-04-26T09:12:51.001Z</time></trkpt><trkpt lat="48.57742681162988" lon="-4.433345271827372"><ele>53.8</ele><time>2026-04-26T09:12:52.001Z</time></trkpt><trkpt lat="48.577387430862274" lon="-4.433493333841645"><ele>53.4</ele><time>2026-04-26T09:12:53.001Z</time></trkpt><trkpt lat="48.5773392229545" lon="-4.433634004385888"><ele>53.0</ele><time>2026-04-26T09:12:54.001Z</time></trkpt><trkpt lat="48.57728642085991" lon="-4.433776289235473"><ele>53.142857142857146</ele><time>2026-04-26T09:12:55.001Z</time></trkpt><trkpt lat="48.57724018028668" lon="-4.433897429569207"><ele>53.285714285714285</ele><time>2026-04-26T09:12:56.001Z</time></trkpt><trkpt lat="48.577205330434765" lon="-4.434001897386986"><ele>53.42857142857143</ele><time>2026-04-26T09:12:57.001Z</time></trkpt><trkpt lat="48.577171403167334" lon="-4.434082057259026"><ele>53.57142857142857</ele><time>2026-04-26T09:12:58.001Z</time></trkpt><trkpt lat="48.5771400330338" lon="-4.434166545352806"><ele>53.71428571428571</ele><time>2026-04-26T09:12:59.001Z</time></trkpt><trkpt lat="48.57711060793523" lon="-4.43425743784943"><ele>53.857142857142854</ele><time>2026-04-26T09:13:01.001Z</time></trkpt><trkpt lat="48.57704727125247" lon="-4.434322457731746"><ele>54.0</ele><time>2026-04-26T09:13:05.001Z</time></trkpt><trkpt lat="48.57702894041823" lon="-4.434442500940926"><ele>53.800000000000004</ele><time>2026-04-26T09:13:15.003Z</time></trkpt><trkpt lat="48.57701054470761" lon="-4.434633031121964"><ele>53.60000000000001</ele><time>2026-04-26T09:13:17.002Z</time></trkpt><trkpt lat="48.576976053336196" lon="-4.434746805409802"><ele>53.4</ele><time>2026-04-26T09:13:18.003Z</time></trkpt><trkpt lat="48.57694533584083" lon="-4.434877713580767"><ele>53.2</ele><time>2026-04-26T09:13:19.002Z</time></trkpt><trkpt lat="48.57690342768976" lon="-4.435026797574431"><ele>53.0</ele><time>2026-04-26T09:13:20.002Z</time></trkpt><trkpt lat="48.5768638153313" lon="-4.4351801584439725"><ele>53.0</ele><time>2026-04-26T09:13:21.002Z</time></trkpt><trkpt lat="48.57683412801919" lon="-4.4353816953997525"><ele>53.0</ele><time>2026-04-26T09:13:22.002Z</time></trkpt><trkpt lat="48.576801425782726" lon="-4.435588329431866"><ele>53.0</ele><time>2026-04-26T09:13:23.002Z</time></trkpt><trkpt lat="48.57677288452971" lon="-4.435796282689359"><ele>53.0</ele><time>2026-04-26T09:13:24.002Z</time></trkpt><trkpt lat="48.57677470720684" lon="-4.436026521677237"><ele>53.0</ele><time>2026-04-26T09:13:25.002Z</time></trkpt><trkpt lat="48.57678415995672" lon="-4.436238025010854"><ele>53.0</ele><time>2026-04-26T09:13:26.002Z</time></trkpt><trkpt lat="48.576790471481985" lon="-4.43641358621547"><ele>53.0</ele><time>2026-04-26T09:13:27.002Z</time></trkpt><trkpt lat="48.57680854380224" lon="-4.436550071412308"><ele>53.0</ele><time>2026-04-26T09:13:28.002Z</time></trkpt><trkpt lat="48.576818084337546" lon="-4.436648347681166"><ele>53.0</ele><time>2026-04-26T09:13:29.002Z</time></trkpt><trkpt lat="48.57686236145708" lon="-4.4367668627396135"><ele>53.0</ele><time>2026-04-26T09:13:30.002Z</time></trkpt><trkpt lat="48.57688329565948" lon="-4.43685680272984"><ele>53.0</ele><time>2026-04-26T09:13:31.002Z</time></trkpt><trkpt lat="48.5769103164041" lon="-4.436943044275488"><ele>53.0</ele><time>2026-04-26T09:13:33.002Z</time></trkpt><trkpt lat="48.57688798863752" lon="-4.436830209343009"><ele>53.0</ele><time>2026-04-26T09:13:37.002Z</time></trkpt><trkpt lat="48.5761907226233" lon="-4.438023384325205"><ele>52.0</ele><time>2026-04-26T09:14:50.002Z</time></trkpt><trkpt lat="48.57613531087088" lon="-4.438073741377784"><ele>51.0</ele><time>2026-04-26T09:14:51.002Z</time></trkpt><trkpt lat="48.57605090527131" lon="-4.438133981415651"><ele>50.0</ele><time>2026-04-26T09:14:53.001Z</time></trkpt><trkpt lat="48.57589853557792" lon="-4.438209537410719"><ele>49.0</ele><time>2026-04-26T09:15:02.001Z</time></trkpt><trkpt lat="48.57583525336238" lon="-4.43817503142404"><ele>48.0</ele><time>2026-04-26T09:15:08.001Z</time></trkpt><trkpt lat="48.57575843401977" lon="-4.438305407427442"><ele>48.0</ele><time>2026-04-26T09:15:12.003Z</time></trkpt><trkpt lat="48.57572903210522" lon="-4.438400349385006"><ele>48.0</ele><time>2026-04-26T09:15:14.003Z</time></trkpt><trkpt lat="48.575673644476765" lon="-4.438460916354808"><ele>48.0</ele><time>2026-04-26T09:15:20.003Z</time></trkpt><trkpt lat="48.57560808667366" lon="-4.438432562414194"><ele>48.0</ele><time>2026-04-26T09:15:27.003Z</time></trkpt><trkpt lat="48.57545530950582" lon="-4.43876975955172"><ele>48.66666666666667</ele><time>2026-04-26T09:16:50.002Z</time></trkpt><trkpt lat="48.57516750633988" lon="-4.439070902140396"><ele>49.333333333333336</ele><time>2026-04-26T09:19:50.003Z</time></trkpt><trkpt lat="48.57509013038923" lon="-4.439077439789308"><ele>50.0</ele><time>2026-04-26T09:19:55.003Z</time></trkpt><trkpt lat="48.57510720974038" lon="-4.439184809950228"><ele>50.00000000000001</ele><time>2026-04-26T09:19:58.003Z</time></trkpt><trkpt lat="48.57499318273956" lon="-4.439236289992795"><ele>50.0</ele><time>2026-04-26T09:19:59.003Z</time></trkpt><trkpt lat="48.57491263320372" lon="-4.439270945042557"><ele>50.0</ele><time>2026-04-26T09:20:00.003Z</time></trkpt><trkpt lat="48.57485082863158" lon="-4.439299589260154"><ele>50.0</ele><time>2026-04-26T09:20:01.003Z</time></trkpt><trkpt lat="48.57478015618493" lon="-4.43931245565631"><ele>50.00000000000001</ele><time>2026-04-26T09:20:04.003Z</time></trkpt><trkpt lat="48.574700705824064" lon="-4.439364610187925"><ele>50.0</ele><time>2026-04-26T09:20:07.003Z</time></trkpt><trkpt lat="48.57469594380648" lon="-4.439507518228766"><ele>50.00000000000001</ele><time>2026-04-26T09:20:09.003Z</time></trkpt><trkpt lat="48.574713276943804" lon="-4.439610898655701"><ele>50.0</ele><time>2026-04-26T09:20:12.003Z</time></trkpt><trkpt lat="48.57469352773129" lon="-4.439703259477085"><ele>50.0</ele><time>2026-04-26T09:20:15.003Z</time></trkpt><trkpt lat="48.57463348656397" lon="-4.439743216215792"><ele>50.0</ele><time>2026-04-26T09:20:19.003Z</time></trkpt><trkpt lat="48.57456565276082" lon="-4.4396617906451326"><ele>50.0</ele><time>2026-04-26T09:20:22.003Z</time></trkpt><trkpt lat="48.574508296028405" lon="-4.439717215081085"><ele>50.00000000000001</ele><time>2026-04-26T09:20:23.003Z</time></trkpt><trkpt lat="48.574432767240836" lon="-4.439796181974555"><ele>50.0</ele><time>2026-04-26T09:20:25.003Z</time></trkpt><trkpt lat="48.57439853415611" lon="-4.439879074392076"><ele>50.4</ele><time>2026-04-26T09:20:26.003Z</time></trkpt><trkpt lat="48.574373628891394" lon="-4.4399768385459835"><ele>50.8</ele><time>2026-04-26T09:20:27.003Z</time></trkpt><trkpt lat="48.5743118736771" lon="-4.440094129653605"><ele>51.2</ele><time>2026-04-26T09:20:29.003Z</time></trkpt><trkpt lat="48.5742269730056" lon="-4.440188474731019"><ele>51.6</ele><time>2026-04-26T09:20:31.003Z</time></trkpt><trkpt lat="48.57416072448761" lon="-4.440282719918685"><ele>52.0</ele><time>2026-04-26T09:20:33.003Z</time></trkpt><trkpt lat="48.57409726082318" lon="-4.44041453778442"><ele>51.0</ele><time>2026-04-26T09:20:35.003Z</time></trkpt><trkpt lat="48.57405892045358" lon="-4.440510328655384"><ele>50.0</ele><time>2026-04-26T09:20:36.003Z</time></trkpt><trkpt lat="48.57400906471098" lon="-4.440653767063349"><ele>49.0</ele><time>2026-04-26T09:20:38.003Z</time></trkpt><trkpt lat="48.57379157245623" lon="-4.44123460455373"><ele>49.400000000000006</ele><time>2026-04-26T09:20:50.003Z</time></trkpt><trkpt lat="48.57374520740504" lon="-4.441359395683482"><ele>49.8</ele><time>2026-04-26T09:20:53.003Z</time></trkpt><trkpt lat="48.573709948250446" lon="-4.441450602096389"><ele>50.2</ele><time>2026-04-26T09:20:55.002Z</time></trkpt><trkpt lat="48.57361875962294" lon="-4.441415981263498"><ele>50.599999999999994</ele><time>2026-04-26T09:20:58.002Z</time></trkpt><trkpt lat="48.57353590269317" lon="-4.441516740633989"><ele>51.0</ele><time>2026-04-26T09:20:59.002Z</time></trkpt><trkpt lat="48.573441212332845" lon="-4.441599857182576"><ele>51.0</ele><time>2026-04-26T09:21:00.002Z</time></trkpt><trkpt lat="48.573393210831625" lon="-4.441711723990507"><ele>51.0</ele><time>2026-04-26T09:21:01.002Z</time></trkpt><trkpt lat="48.57336212664749" lon="-4.4417990956471165"><ele>51.0</ele><time>2026-04-26T09:21:02.002Z</time></trkpt><trkpt lat="48.57330321473441" lon="-4.4419215276006545"><ele>51.0</ele><time>2026-04-26T09:21:04.002Z</time></trkpt><trkpt lat="48.5732436770098" lon="-4.442013568380959"><ele>51.0</ele><time>2026-04-26T09:21:06.002Z</time></trkpt><trkpt lat="48.573196923983666" lon="-4.442126121522927"><ele>51.0</ele><time>2026-04-26T09:21:08.002Z</time></trkpt><trkpt lat="48.57313698371095" lon="-4.442247555796168"><ele>49.8</ele><time>2026-04-26T09:21:10.002Z</time></trkpt><trkpt lat="48.57311713724604" lon="-4.442384682897432"><ele>48.599999999999994</ele><time>2026-04-26T09:21:12.002Z</time></trkpt><trkpt lat="48.573133760943534" lon="-4.442490836661616"><ele>47.4</ele><time>2026-04-26T09:21:13.002Z</time></trkpt><trkpt lat="48.57309593397637" lon="-4.442636696446887"><ele>46.2</ele><time>2026-04-26T09:21:15.002Z</time></trkpt><trkpt lat="48.57300850621661" lon="-4.442808106252769"><ele>45.0</ele><time>2026-04-26T09:21:17.002Z</time></trkpt><trkpt lat="48.57297670839527" lon="-4.4429483546608255"><ele>44.666666666666664</ele><time>2026-04-26T09:21:19.002Z</time></trkpt><trkpt lat="48.57296541931332" lon="-4.443044542691899"><ele>44.333333333333336</ele><time>2026-04-26T09:21:21.002Z</time></trkpt><trkpt lat="48.57295592762819" lon="-4.443164176556548"><ele>44.0</ele><time>2026-04-26T09:21:23.002Z</time></trkpt><trkpt lat="48.5728912567471" lon="-4.443218241914327"><ele>43.66666666666667</ele><time>2026-04-26T09:21:24.002Z</time></trkpt><trkpt lat="48.57282379493905" lon="-4.443157474148362"><ele>43.333333333333336</ele><time>2026-04-26T09:21:25.002Z</time></trkpt><trkpt lat="48.57270720563942" lon="-4.443163868294803"><ele>43.0</ele><time>2026-04-26T09:21:27.002Z</time></trkpt><trkpt lat="48.57265594264388" lon="-4.443293738326449"><ele>43.0</ele><time>2026-04-26T09:21:29.002Z</time></trkpt><trkpt lat="48.572579131516015" lon="-4.443392739727217"><ele>43.0</ele><time>2026-04-26T09:21:31.003Z</time></trkpt><trkpt lat="48.5725981795268" lon="-4.443508158697284"><ele>43.0</ele><time>2026-04-26T09:21:33.004Z</time></trkpt><trkpt lat="48.57260659011867" lon="-4.443613539753196"><ele>43.0</ele><time>2026-04-26T09:21:35.004Z</time></trkpt><trkpt lat="48.57256823146519" lon="-4.443747174545984"><ele>43.0</ele><time>2026-04-26T09:21:37.004Z</time></trkpt><trkpt lat="48.572539379810834" lon="-4.4438631231675005"><ele>43.0</ele><time>2026-04-26T09:21:39.003Z</time></trkpt><trkpt lat="48.57218332410671" lon="-4.443968081277911"><ele>43.0</ele><time>2026-04-26T09:21:50.004Z</time></trkpt><trkpt lat="48.57218877226338" lon="-4.444078813244898"><ele>43.0</ele><time>2026-04-26T09:21:51.004Z</time></trkpt><trkpt lat="48.57213716961058" lon="-4.444165000618007"><ele>43.0</ele><time>2026-04-26T09:21:53.004Z</time></trkpt><trkpt lat="48.572018838546384" lon="-4.4441957826273555"><ele>43.0</ele><time>2026-04-26T09:21:55.004Z</time></trkpt><trkpt lat="48.571941314387026" lon="-4.444190655189938"><ele>43.0</ele><time>2026-04-26T09:21:56.004Z</time></trkpt><trkpt lat="48.571877424756266" lon="-4.444283184653013"><ele>43.0</ele><time>2026-04-26T09:21:58.004Z</time></trkpt><trkpt lat="48.57186580503902" lon="-4.444395601674844"><ele>42.833333333333336</ele><time>2026-04-26T09:22:00.004Z</time></trkpt><trkpt lat="48.571834037700576" lon="-4.444493692490698"><ele>42.66666666666667</ele><time>2026-04-26T09:22:02.003Z</time></trkpt><trkpt lat="48.57178539477776" lon="-4.444573360374164"><ele>42.5</ele><time>2026-04-26T09:22:06.003Z</time></trkpt><trkpt lat="48.5718413282713" lon="-4.444719169028489"><ele>42.333333333333336</ele><time>2026-04-26T09:22:07.003Z</time></trkpt><trkpt lat="48.571848034162684" lon="-4.444855738323904"><ele>42.166666666666664</ele><time>2026-04-26T09:22:08.003Z</time></trkpt><trkpt lat="48.57186826880794" lon="-4.44499352208603"><ele>42.0</ele><time>2026-04-26T09:22:10.003Z</time></trkpt><trkpt lat="48.57186756918586" lon="-4.4451108758882585"><ele>43.0</ele><time>2026-04-26T09:22:14.003Z</time></trkpt><trkpt lat="48.57237604720399" lon="-4.444268029867688"><ele>43.0</ele><time>2026-04-26T09:25:50.004Z</time></trkpt><trkpt lat="48.5724764736441" lon="-4.444154617912878"><ele>43.0</ele><time>2026-04-26T09:25:51.004Z</time></trkpt><trkpt lat="48.572540634301696" lon="-4.44405883801484"><ele>43.0</ele><time>2026-04-26T09:25:52.004Z</time></trkpt><trkpt lat="48.57257214376415" lon="-4.443964838135062"><ele>43.0</ele><time>2026-04-26T09:25:53.004Z</time></trkpt><trkpt lat="48.57264399928457" lon="-4.443804221844631"><ele>43.0</ele><time>2026-04-26T09:25:54.004Z</time></trkpt><trkpt lat="48.57267444309018" lon="-4.4436519063522635"><ele>43.4</ele><time>2026-04-26T09:25:55.004Z</time></trkpt><trkpt lat="48.57269021453264" lon="-4.443557220034303"><ele>43.8</ele><time>2026-04-26T09:25:56.004Z</time></trkpt><trkpt lat="48.57273098410364" lon="-4.443378346923985"><ele>44.2</ele><time>2026-04-26T09:25:58.004Z</time></trkpt><trkpt lat="48.572791584663534" lon="-4.443238281899818"><ele>44.6</ele><time>2026-04-26T09:26:02.004Z</time></trkpt><trkpt lat="48.57282041227976" lon="-4.443093307553764"><ele>45.0</ele><time>2026-04-26T09:26:04.004Z</time></trkpt><trkpt lat="48.57289624143182" lon="-4.442859113564327"><ele>45.0</ele><time>2026-04-26T09:26:08.004Z</time></trkpt><trkpt lat="48.57295817366075" lon="-4.442800302612143"><ele>45.0</ele><time>2026-04-26T09:26:10.004Z</time></trkpt><trkpt lat="48.57300637782761" lon="-4.442671221086201"><ele>45.0</ele><time>2026-04-26T09:26:12.004Z</time></trkpt><trkpt lat="48.57307988248719" lon="-4.442580840736663"><ele>45.0</ele><time>2026-04-26T09:26:14.004Z</time></trkpt><trkpt lat="48.57314675488649" lon="-4.442528394491244"><ele>45.0</ele><time>2026-04-26T09:26:16.004Z</time></trkpt><trkpt lat="48.57322346665229" lon="-4.4424487108753015"><ele>45.0</ele><time>2026-04-26T09:26:18.004Z</time></trkpt><trkpt lat="48.573287274391824" lon="-4.442396292583488"><ele>45.0</ele><time>2026-04-26T09:26:20.004Z</time></trkpt><trkpt lat="48.57334494335674" lon="-4.442312568151327"><ele>45.0</ele><time>2026-04-26T09:26:26.004Z</time></trkpt><trkpt lat="48.57337898653073" lon="-4.442232265771563"><ele>45.0</ele><time>2026-04-26T09:26:31.004Z</time></trkpt><trkpt lat="48.57339759312769" lon="-4.442140706752368"><ele>45.0</ele><time>2026-04-26T09:26:35.004Z</time></trkpt><trkpt lat="48.57383149385021" lon="-4.441769699143642"><ele>45.0</ele><time>2026-04-26T09:27:50.004Z</time></trkpt><trkpt lat="48.5739205086506" lon="-4.441832595313708"><ele>45.0</ele><time>2026-04-26T09:27:55.004Z</time></trkpt><trkpt lat="48.57401660648975" lon="-4.441826661155645"><ele>45.0</ele><time>2026-04-26T09:27:57.004Z</time></trkpt><trkpt lat="48.57408667584654" lon="-4.44177002701918"><ele>45.0</ele><time>2026-04-26T09:28:01.004Z</time></trkpt><trkpt lat="48.57415257873653" lon="-4.44168740160032"><ele>45.0</ele><time>2026-04-26T09:28:04.004Z</time></trkpt><trkpt lat="48.574195529643646" lon="-4.441580557129528"><ele>45.0</ele><time>2026-04-26T09:28:06.004Z</time></trkpt><trkpt lat="48.57426457407739" lon="-4.441564293662318"><ele>45.0</ele><time>2026-04-26T09:28:08.004Z</time></trkpt><trkpt lat="48.57434051444837" lon="-4.441507837509289"><ele>45.0</ele><time>2026-04-26T09:28:13.004Z</time></trkpt><trkpt lat="48.574514688315055" lon="-4.441472622107443"><ele>45.0</ele><time>2026-04-26T09:28:33.003Z</time></trkpt><trkpt lat="48.574838134081645" lon="-4.441109124332143"><ele>46.2</ele><time>2026-04-26T09:28:50.003Z</time></trkpt><trkpt lat="48.57490672293122" lon="-4.4410671319057125"><ele>47.4</ele><time>2026-04-26T09:28:52.003Z</time></trkpt><trkpt lat="48.57497946781904" lon="-4.441002148582178"><ele>48.599999999999994</ele><time>2026-04-26T09:28:56.003Z</time></trkpt><trkpt lat="48.575043246576634" lon="-4.441080845701094"><ele>49.8</ele><time>2026-04-26T09:28:58.003Z</time></trkpt><trkpt lat="48.57514846648305" lon="-4.441104515392997"><ele>51.0</ele><time>2026-04-26T09:29:00.003Z</time></trkpt><trkpt lat="48.57526524492666" lon="-4.4411236180202485"><ele>51.4</ele><time>2026-04-26T09:29:02.003Z</time></trkpt><trkpt lat="48.57541027640936" lon="-4.4411117697038405"><ele>51.8</ele><time>2026-04-26T09:29:08.003Z</time></trkpt><trkpt lat="48.57544750198195" lon="-4.440912944124867"><ele>52.199999999999996</ele><time>2026-04-26T09:29:11.003Z</time></trkpt><trkpt lat="48.57546514438412" lon="-4.440780316431782"><ele>52.599999999999994</ele><time>2026-04-26T09:29:13.003Z</time></trkpt><trkpt lat="48.57545376114222" lon="-4.440677940525298"><ele>53.0</ele><time>2026-04-26T09:29:15.003Z</time></trkpt><trkpt lat="48.57547562333113" lon="-4.440571313965213"><ele>53.0</ele><time>2026-04-26T09:29:19.003Z</time></trkpt><trkpt lat="48.5754056843304" lon="-4.44051277108871"><ele>53.0</ele><time>2026-04-26T09:29:23.003Z</time></trkpt><trkpt lat="48.57537036712745" lon="-4.440416270963717"><ele>53.0</ele><time>2026-04-26T09:29:31.003Z</time></trkpt><trkpt lat="48.57537176405494" lon="-4.4403118435103455"><ele>53.0</ele><time>2026-04-26T09:29:37.003Z</time></trkpt><trkpt lat="48.575158522806476" lon="-4.4396104889585075"><ele>52.0</ele><time>2026-04-26T09:30:50.003Z</time></trkpt><trkpt lat="48.575137147404824" lon="-4.439770805290979"><ele>51.0</ele><time>2026-04-26T09:30:52.003Z</time></trkpt><trkpt lat="48.57518548876591" lon="-4.439929372903208"><ele>50.0</ele><time>2026-04-26T09:30:53.003Z</time></trkpt><trkpt lat="48.57527548127613" lon="-4.440103341406091"><ele>49.0</ele><time>2026-04-26T09:30:54.003Z</time></trkpt><trkpt lat="48.57534177995465" lon="-4.440237677255736"><ele>49.49999999999999</ele><time>2026-04-26T09:30:55.003Z</time></trkpt><trkpt lat="48.575360570040594" lon="-4.440363094299314"><ele>50.0</ele><time>2026-04-26T09:30:56.003Z</time></trkpt><trkpt lat="48.575366998450995" lon="-4.440524396589187"><ele>50.5</ele><time>2026-04-26T09:30:58.003Z</time></trkpt><trkpt lat="48.57540599536436" lon="-4.4406424203443216"><ele>51.0</ele><time>2026-04-26T09:30:59.003Z</time></trkpt><trkpt lat="48.57544190348984" lon="-4.440737324626371"><ele>51.49999999999999</ele><time>2026-04-26T09:31:00.003Z</time></trkpt><trkpt lat="48.575446758881775" lon="-4.440832563698593"><ele>52.0</ele><time>2026-04-26T09:31:05.003Z</time></trkpt><trkpt lat="48.575433980894516" lon="-4.440960501693101"><ele>52.166666666666664</ele><time>2026-04-26T09:31:11.003Z</time></trkpt><trkpt lat="48.57537488793335" lon="-4.441003348614286"><ele>52.33333333333333</ele><time>2026-04-26T09:31:13.003Z</time></trkpt><trkpt lat="48.57531446265235" lon="-4.441047678333226"><ele>52.5</ele><time>2026-04-26T09:31:15.003Z</time></trkpt><trkpt lat="48.575258951780285" lon="-4.441146697060263"><ele>52.66666666666667</ele><time>2026-04-26T09:31:18.003Z</time></trkpt><trkpt lat="48.575187687233374" lon="-4.441183016550593"><ele>52.833333333333336</ele><time>2026-04-26T09:31:22.003Z</time></trkpt><trkpt lat="48.575155924106134" lon="-4.4410391125537725"><ele>53.0</ele><time>2026-04-26T09:31:24.003Z</time></trkpt><trkpt lat="48.57510953029654" lon="-4.440906693449598"><ele>52.66666666666667</ele><time>2026-04-26T09:31:26.003Z</time></trkpt><trkpt lat="48.57503756842484" lon="-4.440840708957551"><ele>52.333333333333336</ele><time>2026-04-26T09:31:28.003Z</time></trkpt><trkpt lat="48.5749310393295" lon="-4.440830563136"><ele>52.0</ele><time>2026-04-26T09:31:30.003Z</time></trkpt><trkpt lat="48.57484282820941" lon="-4.440792938295413"><ele>51.66666666666667</ele><time>2026-04-26T09:31:32.003Z</time></trkpt><trkpt lat="48.574774810325046" lon="-4.440779063382283"><ele>51.333333333333336</ele><time>2026-04-26T09:31:33.003Z</time></trkpt><trkpt lat="48.57468475959091" lon="-4.440742417081852"><ele>51.0</ele><time>2026-04-26T09:31:35.003Z</time></trkpt><trkpt lat="48.57469264172419" lon="-4.440934126911977"><ele>51.0</ele><time>2026-04-26T09:31:37.003Z</time></trkpt><trkpt lat="48.57469297990387" lon="-4.4410439729936515"><ele>51.0</ele><time>2026-04-26T09:31:38.003Z</time></trkpt><trkpt lat="48.57466745996497" lon="-4.441158421213437"><ele>51.0</ele><time>2026-04-26T09:31:39.003Z</time></trkpt><trkpt lat="48.5743246968954" lon="-4.441262429056016"><ele>50.0</ele><time>2026-04-26T09:31:50.003Z</time></trkpt><trkpt lat="48.57429698710794" lon="-4.441358709484735"><ele>49.0</ele><time>2026-04-26T09:31:51.003Z</time></trkpt><trkpt lat="48.574227415924106" lon="-4.441427072883291"><ele>48.0</ele><time>2026-04-26T09:31:53.003Z</time></trkpt><trkpt lat="48.57420898306144" lon="-4.441524705825694"><ele>47.0</ele><time>2026-04-26T09:31:57.002Z</time></trkpt><trkpt lat="48.57419298108875" lon="-4.441625600226794"><ele>46.0</ele><time>2026-04-26T09:32:00.002Z</time></trkpt><trkpt lat="48.57410419677435" lon="-4.4415859339406545"><ele>45.0</ele><time>2026-04-26T09:32:11.004Z</time></trkpt><trkpt lat="48.574036984895734" lon="-4.441558582805395"><ele>45.0</ele><time>2026-04-26T09:32:14.003Z</time></trkpt><trkpt lat="48.57404455726812" lon="-4.44145329605571"><ele>45.0</ele><time>2026-04-26T09:32:19.004Z</time></trkpt><trkpt lat="48.57406825952909" lon="-4.4413627081305025"><ele>45.0</ele><time>2026-04-26T09:32:23.003Z</time></trkpt><trkpt lat="48.574116363993305" lon="-4.441267150743474"><ele>45.0</ele><time>2026-04-26T09:32:28.003Z</time></trkpt><trkpt lat="48.57416607529503" lon="-4.441205897090903"><ele>45.0</ele><time>2026-04-26T09:32:31.003Z</time></trkpt><trkpt lat="48.574252053572536" lon="-4.441122411062968"><ele>45.0</ele><time>2026-04-26T09:32:34.003Z</time></trkpt><trkpt lat="48.57432491449862" lon="-4.440658731174283"><ele>45.666666666666664</ele><time>2026-04-26T09:32:50.003Z</time></trkpt><trkpt lat="48.574354570906934" lon="-4.440505956900137"><ele>46.33333333333333</ele><time>2026-04-26T09:32:53.003Z</time></trkpt><trkpt lat="48.57445150405138" lon="-4.440504544303378"><ele>47.0</ele><time>2026-04-26T09:32:56.003Z</time></trkpt><trkpt lat="48.574508869789945" lon="-4.440412162111003"><ele>47.666666666666664</ele><time>2026-04-26T09:33:00.003Z</time></trkpt><trkpt lat="48.574581288598566" lon="-4.440365014129221"><ele>48.33333333333333</ele><time>2026-04-26T09:33:04.003Z</time></trkpt><trkpt lat="48.57458348455763" lon="-4.440242527526176"><ele>49.0</ele><time>2026-04-26T09:33:09.003Z</time></trkpt><trkpt lat="48.57462922622183" lon="-4.440161270498511"><ele>49.0</ele><time>2026-04-26T09:33:18.003Z</time></trkpt><trkpt lat="48.574432870849805" lon="-4.440003824103234"><ele>49.0</ele><time>2026-04-26T09:35:50.003Z</time></trkpt><trkpt lat="48.57462444396734" lon="-4.440024523685097"><ele>49.0</ele><time>2026-04-26T09:36:09.002Z</time></trkpt><trkpt lat="48.575145155021346" lon="-4.4387373674528545"><ele>49.5</ele><time>2026-04-26T09:37:50.003Z</time></trkpt><trkpt lat="48.5751933909362" lon="-4.438659589668441"><ele>50.0</ele><time>2026-04-26T09:37:54.003Z</time></trkpt><trkpt lat="48.575260413340054" lon="-4.438582426590213"><ele>50.5</ele><time>2026-04-26T09:37:57.003Z</time></trkpt><trkpt lat="48.575276411072174" lon="-4.4384621371600765"><ele>51.0</ele><time>2026-04-26T09:38:00.003Z</time></trkpt><trkpt lat="48.57420165040774" lon="-4.432601132144126"><ele>52.166666666666664</ele><time>2026-04-26T09:39:50.002Z</time></trkpt><trkpt lat="48.574186958200954" lon="-4.432490858611082"><ele>53.33333333333333</ele><time>2026-04-26T09:39:51.002Z</time></trkpt><trkpt lat="48.57418674934546" lon="-4.432390259062836"><ele>54.5</ele><time>2026-04-26T09:39:52.002Z</time></trkpt><trkpt lat="48.574189691167504" lon="-4.4322815204526425"><ele>55.666666666666664</ele><time>2026-04-26T09:39:53.002Z</time></trkpt><trkpt lat="48.57418467566141" lon="-4.43215367957345"><ele>56.83333333333333</ele><time>2026-04-26T09:39:54.002Z</time></trkpt><trkpt lat="48.574171425085794" lon="-4.432043102961161"><ele>58.0</ele><time>2026-04-26T09:39:55.002Z</time></trkpt><trkpt lat="48.57409575053521" lon="-4.431921181664642"><ele>58.2</ele><time>2026-04-26T09:39:56.002Z</time></trkpt><trkpt lat="48.5740202416093" lon="-4.43180136443488"><ele>58.4</ele><time>2026-04-26T09:39:57.002Z</time></trkpt><trkpt lat="48.573956198551365" lon="-4.431675351851752"><ele>58.60000000000001</ele><time>2026-04-26T09:39:58.002Z</time></trkpt><trkpt lat="48.57393038506084" lon="-4.431557282096774"><ele>58.800000000000004</ele><time>2026-04-26T09:39:59.002Z</time></trkpt><trkpt lat="48.57390613140526" lon="-4.4314304417090655"><ele>59.0</ele><time>2026-04-26T09:40:00.002Z</time></trkpt><trkpt lat="48.57387722793601" lon="-4.431309843669014"><ele>59.0</ele><time>2026-04-26T09:40:01.002Z</time></trkpt><trkpt lat="48.57385095278562" lon="-4.431174257897991"><ele>59.00000000000001</ele><time>2026-04-26T09:40:02.002Z</time></trkpt><trkpt lat="48.573813204584766" lon="-4.43104234393692"><ele>59.00000000000001</ele><time>2026-04-26T09:40:03.002Z</time></trkpt><trkpt lat="48.57376852591661" lon="-4.430916278336533"><ele>59.0</ele><time>2026-04-26T09:40:04.002Z</time></trkpt><trkpt lat="48.573722082485276" lon="-4.4307880840421365"><ele>59.0</ele><time>2026-04-26T09:40:05.002Z</time></trkpt><trkpt lat="48.57368836808007" lon="-4.430655890848858"><ele>59.0</ele><time>2026-04-26T09:40:06.002Z</time></trkpt><trkpt lat="48.57365124283758" lon="-4.430516654683665"><ele>59.00000000000001</ele><time>2026-04-26T09:40:07.002Z</time></trkpt><trkpt lat="48.573621397827644" lon="-4.4303692392896945"><ele>59.00000000000001</ele><time>2026-04-26T09:40:08.002Z</time></trkpt><trkpt lat="48.573586563737614" lon="-4.430202312594095"><ele>59.0</ele><time>2026-04-26T09:40:09.002Z</time></trkpt><trkpt lat="48.5735570231294" lon="-4.4300249771745825"><ele>59.0</ele><time>2026-04-26T09:40:10.002Z</time></trkpt><trkpt lat="48.57353327625217" lon="-4.429849665199206"><ele>59.25</ele><time>2026-04-26T09:40:11.002Z</time></trkpt><trkpt lat="48.57350506010916" lon="-4.4296678035059"><ele>59.5</ele><time>2026-04-26T09:40:12.002Z</time></trkpt><trkpt lat="48.573481166414986" lon="-4.429478278150894"><ele>59.75</ele><time>2026-04-26T09:40:13.002Z</time></trkpt><trkpt lat="48.57346171999897" lon="-4.429290970495011"><ele>60.0</ele><time>2026-04-26T09:40:14.002Z</time></trkpt><trkpt lat="48.57342019676863" lon="-4.429082278771646"><ele>60.0</ele><time>2026-04-26T09:40:15.002Z</time></trkpt><trkpt lat="48.57338111721426" lon="-4.428871043306229"><ele>60.0</ele><time>2026-04-26T09:40:16.002Z</time></trkpt><trkpt lat="48.573346617490415" lon="-4.428660537235824"><ele>60.0</ele><time>2026-04-26T09:40:17.002Z</time></trkpt><trkpt lat="48.573311215195076" lon="-4.4284406192123456"><ele>60.0</ele><time>2026-04-26T09:40:18.002Z</time></trkpt><trkpt lat="48.57327044237718" lon="-4.428227547064008"><ele>60.0</ele><time>2026-04-26T09:40:19.002Z</time></trkpt><trkpt lat="48.57322827010116" lon="-4.427996585335319"><ele>60.0</ele><time>2026-04-26T09:40:20.002Z</time></trkpt><trkpt lat="48.573184054224015" lon="-4.427757882553389"><ele>60.0</ele><time>2026-04-26T09:40:21.002Z</time></trkpt><trkpt lat="48.57313808765548" lon="-4.427522705476064"><ele>60.0</ele><time>2026-04-26T09:40:22.002Z</time></trkpt><trkpt lat="48.57308603179075" lon="-4.427281169565269"><ele>60.0</ele><time>2026-04-26T09:40:23.002Z</time></trkpt><trkpt lat="48.57302802709454" lon="-4.427041829505619"><ele>60.0</ele><time>2026-04-26T09:40:24.002Z</time></trkpt><trkpt lat="48.57298192957162" lon="-4.426820789486651"><ele>60.0</ele><time>2026-04-26T09:40:25.002Z</time></trkpt><trkpt lat="48.57292523636035" lon="-4.426629109736502"><ele>60.0</ele><time>2026-04-26T09:40:26.002Z</time></trkpt><trkpt lat="48.57287254386291" lon="-4.426463744277965"><ele>60.0</ele><time>2026-04-26T09:40:27.002Z</time></trkpt><trkpt lat="48.57284130333538" lon="-4.426313970663136"><ele>60.0</ele><time>2026-04-26T09:40:28.002Z</time></trkpt><trkpt lat="48.57280430357196" lon="-4.426168117069481"><ele>60.0</ele><time>2026-04-26T09:40:29.002Z</time></trkpt><trkpt lat="48.572770642729736" lon="-4.42603746769357"><ele>60.0</ele><time>2026-04-26T09:40:30.002Z</time></trkpt><trkpt lat="48.57274396564229" lon="-4.42592484424484"><ele>60.0</ele><time>2026-04-26T09:40:31.002Z</time></trkpt><trkpt lat="48.57270558880266" lon="-4.425792564083139"><ele>60.0</ele><time>2026-04-26T09:40:32.002Z</time></trkpt><trkpt lat="48.572666492054374" lon="-4.425668146214533"><ele>60.0</ele><time>2026-04-26T09:40:33.002Z</time></trkpt><trkpt lat="48.57263190582517" lon="-4.425554849817149"><ele>60.0</ele><time>2026-04-26T09:40:34.002Z</time></trkpt><trkpt lat="48.572595570967025" lon="-4.425430838273956"><ele>59.8</ele><time>2026-04-26T09:40:35.001Z</time></trkpt><trkpt lat="48.572571142154615" lon="-4.425321463383599"><ele>59.6</ele><time>2026-04-26T09:40:36.001Z</time></trkpt><trkpt lat="48.57252982065816" lon="-4.425206251439475"><ele>59.400000000000006</ele><time>2026-04-26T09:40:37.001Z</time></trkpt><trkpt lat="48.57248848884206" lon="-4.425094701230988"><ele>59.2</ele><time>2026-04-26T09:40:38.001Z</time></trkpt><trkpt lat="48.57245294094446" lon="-4.424992321477424"><ele>59.0</ele><time>2026-04-26T09:40:39.001Z</time></trkpt><trkpt lat="48.572410542004064" lon="-4.423723410288764"><ele>59.00000000000001</ele><time>2026-04-26T09:40:50.001Z</time></trkpt><trkpt lat="48.57241390679676" lon="-4.423596730332679"><ele>59.0</ele><time>2026-04-26T09:40:51.001Z</time></trkpt><trkpt lat="48.57242412734429" lon="-4.423477780015453"><ele>59.0</ele><time>2026-04-26T09:40:52.001Z</time></trkpt><trkpt lat="48.57241105787945" lon="-4.423348146696639"><ele>59.0</ele><time>2026-04-26T09:40:53.001Z</time></trkpt><trkpt lat="48.572401295968575" lon="-4.423238746718675"><ele>59.00000000000001</ele><time>2026-04-26T09:40:54.001Z</time></trkpt><trkpt lat="48.572395637920486" lon="-4.423141889051678"><ele>59.0</ele><time>2026-04-26T09:40:55.001Z</time></trkpt><trkpt lat="48.572360950301785" lon="-4.423045023022296"><ele>59.0</ele><time>2026-04-26T09:40:57.001Z</time></trkpt><trkpt lat="48.572280322387705" lon="-4.423016811760012"><ele>59.00000000000001</ele><time>2026-04-26T09:41:00.001Z</time></trkpt><trkpt lat="48.57220999154236" lon="-4.42305814420408"><ele>59.00000000000001</ele><time>2026-04-26T09:41:02.001Z</time></trkpt><trkpt lat="48.57212653439293" lon="-4.423165417681753"><ele>59.0</ele><time>2026-04-26T09:41:04.001Z</time></trkpt><trkpt lat="48.572082777817414" lon="-4.4232560867897295"><ele>59.0</ele><time>2026-04-26T09:41:05.001Z</time></trkpt><trkpt lat="48.5720136131746" lon="-4.423391489264512"><ele>58.5</ele><time>2026-04-26T09:41:07.001Z</time></trkpt><trkpt lat="48.57192268890754" lon="-4.423510934210292"><ele>58.0</ele><time>2026-04-26T09:41:09.001Z</time></trkpt><trkpt lat="48.571811412025845" lon="-4.423559134681306"><ele>57.5</ele><time>2026-04-26T09:41:11.001Z</time></trkpt><trkpt lat="48.571692730281534" lon="-4.423638438988214"><ele>57.0</ele><time>2026-04-26T09:41:13.001Z</time></trkpt><trkpt lat="48.571610915881685" lon="-4.423719948596762"><ele>57.0</ele><time>2026-04-26T09:41:29Z</time></trkpt><trkpt lat="48.571387813642986" lon="-4.423369800319256"><ele>57.0</ele><time>2026-04-26T09:43:49.999Z</time></trkpt><trkpt lat="48.57142890187524" lon="-4.423458694810374"><ele>57.0</ele><time>2026-04-26T09:44:15.999Z</time></trkpt></trkseg></trk></gpx>